M I D A S
Marine Information and Data Acquisition System
Tripno 488 of the Zeeleeuw from 2003-04-09 06:23:00 to 2003-04-09 13:32:44
Back to CruiseResearch ActivitiesStationsMapUnderway DataData graphs

EquipmentUnitsComment
TimeDGPSUTC
LatitudeDGPSDM.mWGS84
LongitudeDGPSDM.mWGS84
TemperatureSBE03/SBE38deg celciusITS90
ConductivitySBE21S/mITS90
SalinitySBE21 Practical Salinity Units
ChlorophylAChelsea fluorimeterg/lCalibrated in Aceton
Missing or incorrect values are displayed as -999
Sea surface data collected by the RV Zeeleeuw from 2003-04-09 06:23:00 to 2003-04-09 13:32:44
                                                                                    Next 1000 lines
Time Latitude Longitude Temperature Conductivity Salinity ChlorophylA
2003-04-09 06:23:11 51°13.602 2°56.089 14.053215 3.750937 29.339882 -0.814958
2003-04-09 06:23:16 51°13.603 2°56.084 14.067949 3.750937 29.339882 -0.814958
2003-04-09 06:23:22 51°13.604 2°56.075 14.068655 3.750937 29.340432 -0.848668
2003-04-09 06:23:26 51°13.606 2°56.069 14.060009 3.751043 29.341349 -0.848668
2003-04-09 06:23:32 51°13.608 2°56.06 14.057538 3.750937 29.340432 -0.882377
2003-04-09 06:23:36 51°13.609 2°56.053 14.057538 3.750937 29.340432 -0.882377
2003-04-09 06:23:42 51°13.611 2°56.042 14.056215 3.750937 29.340432 -0.848668
2003-04-09 06:23:46 51°13.613 2°56.034 14.062303 3.750937 29.340432 -0.848668
2003-04-09 06:23:52 51°13.616 2°56.021 14.063626 3.750937 29.340432 -0.848668
2003-04-09 06:23:56 51°13.618 2°56.013 14.062523 3.750832 29.339516 -0.848668
2003-04-09 06:24:02 51°13.621 2°56 14.060671 3.750937 29.340432 -0.848668
2003-04-09 06:24:07 51°13.623 2°55.988 14.060671 3.750937 29.340432 -0.848668
2003-04-09 06:24:12 51°13.626 2°55.977 14.054847 3.750832 29.339516 -0.848668
2003-04-09 06:24:16 51°13.628 2°55.968 14.055024 3.750937 29.340983 -0.848668
2003-04-09 06:24:22 51°13.632 2°55.955 14.055906 3.750832 29.339516 -0.848668
2003-04-09 06:24:27 51°13.635 2°55.944 14.049685 3.750832 29.340067 -0.848668
2003-04-09 06:24:32 51°13.639 2°55.932 14.0507 3.750937 29.340432 -0.848668
2003-04-09 06:24:36 51°13.641 2°55.923 14.0507 3.750937 29.340432 -0.848668
2003-04-09 06:24:42 51°13.646 2°55.91 14.043685 3.750832 29.339516 -0.882377
2003-04-09 06:24:47 51°13.649 2°55.899 14.053568 3.750832 29.339516 -0.848668
2003-04-09 06:24:52 51°13.653 2°55.888 14.048362 3.750832 29.339516 -0.848668
2003-04-09 06:24:56 51°13.656 2°55.879 14.052024 3.750937 29.339882 -0.848668
2003-04-09 06:25:02 51°13.66 2°55.866 14.052906 3.750832 29.338966 -0.848668
2003-04-09 06:25:06 51°13.663 2°55.857 14.052906 3.750832 29.338966 -0.848668
2003-04-09 06:25:12 51°13.668 2°55.845 14.049729 3.750832 29.339516 -0.882377
2003-04-09 06:25:16 51°13.67 2°55.836 14.048009 3.750832 29.339516 -0.848668
2003-04-09 06:25:22 51°13.674 2°55.824 14.054141 3.750937 29.340432 -0.848668
2003-04-09 06:25:27 51°13.677 2°55.813 14.054141 3.750832 29.339516 -0.882377
2003-04-09 06:25:32 51°13.68 2°55.803 14.049465 3.750832 29.339516 -0.848668
2003-04-09 06:25:36 51°13.683 2°55.795 14.049465 3.750832 29.339516 -0.848668
2003-04-09 06:25:42 51°13.686 2°55.784 14.051671 3.750832 29.339516 -0.848668
2003-04-09 06:25:46 51°13.688 2°55.777 14.0522 3.750832 29.338966 -0.882377
2003-04-09 06:25:51 51°13.691 2°55.769 14.04567 3.750832 29.338966 -0.814958
2003-04-09 06:25:54 51°13.692 2°55.765 14.0552 3.750832 29.338415 -0.882377
2003-04-09 06:26:00 51°13.694 2°55.759 14.059656 3.750832 29.338966 -0.848668
2003-04-09 06:26:06 51°13.695 2°55.754 14.059656 3.750832 29.338966 -0.848668
2003-04-09 06:26:10 51°13.695 2°55.752 14.053127 3.750832 29.338966 -0.882377
2003-04-09 06:26:14 51°13.696 2°55.75 14.053259 3.750832 29.338966 -0.848668
2003-04-09 06:26:20 51°13.696 2°55.748 14.056171 3.750832 29.338966 -0.814958
2003-04-09 06:26:25 51°13.697 2°55.748 14.043243 3.750832 29.338966 -0.848668
2003-04-09 06:26:31 51°13.698 2°55.748 14.047038 3.750832 29.340067 -0.882377
2003-04-09 06:26:35 51°13.698 2°55.749 14.047038 3.750832 29.340067 -0.882377
2003-04-09 06:26:40 51°13.699 2°55.751 14.042052 3.750832 29.340067 -0.848668
2003-04-09 06:26:46 51°13.701 2°55.754 14.044346 3.750832 29.340618 -0.848668
2003-04-09 06:26:51 51°13.702 2°55.755 14.053038 3.750727 29.339702 -0.882377
2003-04-09 06:26:56 51°13.703 2°55.757 14.073154 3.750727 29.339702 -0.882377
2003-04-09 06:27:00 51°13.703 2°55.757 14.068743 3.750727 29.339702 -0.848668
2003-04-09 06:27:06 51°13.704 2°55.757 14.068743 3.750727 29.339702 -0.848668
2003-04-09 06:27:11 51°13.704 2°55.756 14.059877 3.750727 29.339702 -0.882377
2003-04-09 06:27:16 51°13.704 2°55.754 14.077917 3.750832 29.339516 -0.848668
2003-04-09 06:27:20 51°13.704 2°55.753 14.065435 3.750727 29.3386 -0.848668
2003-04-09 06:27:26 51°13.704 2°55.75 14.071698 3.750727 29.3386 -0.848668
2003-04-09 06:27:31 51°13.704 2°55.748 14.066273 3.750727 29.3386 -0.848668
2003-04-09 06:27:36 51°13.702 2°55.745 14.066273 3.750727 29.3386 -0.848668
2003-04-09 06:27:42 51°13.7 2°55.743 14.06495 3.750727 29.33805 -0.848668
2003-04-09 06:27:46 51°13.699 2°55.741 14.065302 3.750621 29.337684 -0.848668
2003-04-09 06:27:51 51°13.698 2°55.739 14.064729 3.750727 29.3386 -0.814958
2003-04-09 06:27:56 51°13.696 2°55.737 14.064685 3.750727 29.33805 -0.882377
2003-04-09 06:28:00 51°13.695 2°55.736 14.062303 3.750621 29.337684 -0.814958
2003-04-09 06:28:06 51°13.695 2°55.736 14.062303 3.750621 29.337684 -0.814958
2003-04-09 06:28:11 51°13.696 2°55.735 14.062082 3.750621 29.338235 -0.848668
2003-04-09 06:28:15 51°13.697 2°55.735 14.061068 3.750621 29.337684 -0.848668
2003-04-09 06:28:20 51°13.698 2°55.735 14.054274 3.750621 29.338235 -0.814958
2003-04-09 06:28:26 51°13.698 2°55.734 14.049685 3.750727 29.339702 -0.848668
2003-04-09 06:28:31 51°13.701 2°55.734 14.044567 3.750621 29.338786 -0.882377
2003-04-09 06:28:36 51°13.704 2°55.733 14.044567 3.750621 29.338786 -0.882377
2003-04-09 06:28:42 51°13.704 2°55.731 14.039801 3.750727 29.340253 -0.814958
2003-04-09 06:28:46 51°13.703 2°55.729 14.040154 3.750621 29.339337 -0.848668
2003-04-09 06:28:50 51°13.702 2°55.727 14.042273 3.750621 29.339887 -0.848668
2003-04-09 06:28:55 51°13.7 2°55.724 14.048715 3.750621 29.339337 -0.848668
2003-04-09 06:29:00 51°13.703 2°55.721 14.050127 3.750516 29.33787 -0.882377
2003-04-09 06:29:06 51°13.709 2°55.718 14.050127 3.750516 29.33787 -0.882377
2003-04-09 06:29:10 51°13.714 2°55.716 14.053877 3.750621 29.337684 -0.814958
2003-04-09 06:29:16 51°13.721 2°55.711 14.055244 3.750621 29.337133 -0.882377
2003-04-09 06:29:20 51°13.726 2°55.708 14.058774 3.750621 29.337133 -0.848668
2003-04-09 06:29:26 51°13.733 2°55.702 14.059568 3.750621 29.337133 -0.848668
2003-04-09 06:29:31 51°13.739 2°55.697 14.062347 3.750727 29.3386 -0.882377
2003-04-09 06:29:36 51°13.746 2°55.692 14.062347 3.750727 29.3386 -0.882377
2003-04-09 06:29:40 51°13.751 2°55.687 14.060979 3.750621 29.338235 -0.848668
2003-04-09 06:29:45 51°13.758 2°55.68 14.082283 3.750621 29.338235 -0.848668
2003-04-09 06:29:50 51°13.765 2°55.674 14.071698 3.750621 29.337684 -0.848668
2003-04-09 06:30:00 51°13.783 2°55.662 14.082239 3.750621 29.338786 -0.848668
2003-04-09 06:30:15 51°13.81 2°55.643 14.081622 3.750621 29.338786 -0.882377
2003-04-09 06:30:26 51°13.827 2°55.627 14.077255 3.750621 29.339887 -0.848668
2003-04-09 06:30:29 51°13.833 2°55.623 14.085326 3.750621 29.339337 -0.848668
2003-04-09 06:30:35 51°13.845 2°55.614 14.085326 3.750621 29.339337 -0.848668
2003-04-09 06:30:39 51°13.852 2°55.609 14.07902 3.750516 29.338971 -0.848668
2003-04-09 06:30:45 51°13.861 2°55.602 14.083253 3.750516 29.338971 -0.848668
2003-04-09 06:30:53 51°13.876 2°55.59 14.081622 3.750516 29.33842 -0.882377
2003-04-09 06:30:57 51°13.881 2°55.583 14.081004 3.750516 29.338971 -0.882377
2003-04-09 06:31:03 51°13.888 2°55.576 14.081004 3.750621 29.339337 -0.848668
2003-04-09 06:31:08 51°13.898 2°55.57 14.080122 3.750516 29.33842 -0.848668
2003-04-09 06:31:13 51°13.906 2°55.563 14.079902 3.75041 29.338055 -0.848668
2003-04-09 06:31:18 51°13.915 2°55.556 14.079902 3.75041 29.338055 -0.848668
2003-04-09 06:31:23 51°13.924 2°55.549 14.07827 3.750516 29.338971 -0.848668
2003-04-09 06:31:28 51°13.935 2°55.543 14.079725 3.75041 29.338055 -0.848668
2003-04-09 06:31:32 51°13.944 2°55.538 14.080122 3.750516 29.33842 -0.848668
2003-04-09 06:31:38 51°13.957 2°55.53 14.079152 3.75041 29.337504 -0.848668
2003-04-09 06:31:43 51°13.968 2°55.523 14.080784 3.75041 29.336954 -0.848668
2003-04-09 06:31:48 51°13.978 2°55.517 14.080784 3.75041 29.336954 -0.848668
2003-04-09 06:31:52 51°13.986 2°55.512 14.081842 3.75041 29.337504 -0.882377
2003-04-09 06:31:56 51°13.994 2°55.506 14.082504 3.75041 29.337504 -0.882377
2003-04-09 06:32:02 51°14.005 2°55.498 14.084444 3.75041 29.337504 -0.814958
2003-04-09 06:32:08 51°14.017 2°55.49 14.080387 3.75041 29.337504 -0.848668
2003-04-09 06:32:13 51°14.026 2°55.484 14.081136 3.75041 29.338055 -0.848668
2003-04-09 06:32:18 51°14.034 2°55.477 14.081136 3.75041 29.338055 -0.848668
2003-04-09 06:32:23 51°14.042 2°55.47 14.082018 3.750305 29.33769 -0.848668
2003-04-09 06:32:27 51°14.049 2°55.465 14.084444 3.750305 29.337139 -0.848668
2003-04-09 06:32:32 51°14.058 2°55.458 14.082371 3.75041 29.337504 -0.848668
2003-04-09 06:32:38 51°14.068 2°55.45 14.08193 3.75041 29.338055 -0.882377
2003-04-09 06:32:42 51°14.076 2°55.445 14.083782 3.75041 29.338055 -0.848668
2003-04-09 06:32:48 51°14.088 2°55.437 14.083782 3.75041 29.338055 -0.848668
2003-04-09 06:32:52 51°14.096 2°55.432 14.085811 3.75041 29.338055 -0.848668
2003-04-09 06:32:58 51°14.108 2°55.424 14.087266 3.75041 29.337504 -0.848668
2003-04-09 06:33:03 51°14.118 2°55.417 14.085458 3.750305 29.337139 -0.882377
2003-04-09 06:33:08 51°14.128 2°55.41 14.084708 3.750305 29.33769 -0.848668
2003-04-09 06:33:12 51°14.136 2°55.404 14.084047 3.750305 29.33769 -0.882377
2003-04-09 06:33:16 51°14.144 2°55.398 14.084047 3.750305 29.33769 -0.882377
2003-04-09 06:33:23 51°14.158 2°55.387 14.084223 3.7502 29.336774 -0.848668
2003-04-09 06:33:28 51°14.168 2°55.378 14.08171 3.750305 29.33769 -0.882377
2003-04-09 06:33:32 51°14.176 2°55.371 14.079813 3.750305 29.337139 -0.848668
2003-04-09 06:33:38 51°14.187 2°55.359 14.092866 3.750305 29.337139 -0.848668
2003-04-09 06:33:43 51°14.197 2°55.349 14.094233 3.750305 29.336588 -0.814958
2003-04-09 06:33:48 51°14.206 2°55.338 14.094233 3.750305 29.336588 -0.814958
2003-04-09 06:33:52 51°14.214 2°55.329 14.093131 3.750305 29.337139 -0.882377
2003-04-09 06:33:58 51°14.225 2°55.314 14.095115 3.750305 29.33769 -0.882377
2003-04-09 06:34:03 51°14.235 2°55.302 14.097672 3.750305 29.337139 -0.848668
2003-04-09 06:34:08 51°14.244 2°55.289 14.097981 3.7502 29.336774 -0.848668
2003-04-09 06:34:12 51°14.251 2°55.278 14.086031 3.7502 29.336774 -0.814958
2003-04-09 06:34:18 51°14.261 2°55.261 14.086031 3.7502 29.336774 -0.814958
2003-04-09 06:34:22 51°14.268 2°55.25 14.083474 3.7502 29.336774 -0.848668
2003-04-09 06:34:28 51°14.277 2°55.231 14.079946 3.7502 29.336774 -0.848668
2003-04-09 06:34:33 51°14.285 2°55.215 14.094233 3.7502 29.336774 -0.882377
2003-04-09 06:34:38 51°14.293 2°55.199 14.093748 3.7502 29.336774 -0.848668
2003-04-09 06:34:43 51°14.3 2°55.183 14.095071 3.750305 29.33769 -0.848668
2003-04-09 06:34:47 51°14.305 2°55.17 14.095071 3.750305 29.33769 -0.848668
2003-04-09 06:34:52 51°14.312 2°55.154 14.084488 3.750094 29.335857 -0.848668
2003-04-09 06:34:56 51°14.318 2°55.141 14.086428 3.7502 29.336774 -0.848668
2003-04-09 06:35:03 51°14.327 2°55.118 14.083562 3.7502 29.337324 -0.882377
2003-04-09 06:35:08 51°14.334 2°55.101 14.085899 3.750094 29.336408 -0.882377
2003-04-09 06:35:12 51°14.339 2°55.087 14.076814 3.749989 29.335492 -0.848668
2003-04-09 06:35:18 51°14.346 2°55.067 14.076814 3.749989 29.335492 -0.848668
2003-04-09 06:35:23 51°14.353 2°55.05 14.080695 3.7502 29.337875 -0.848668
2003-04-09 06:35:27 51°14.359 2°55.037 14.082063 3.750094 29.336959 -0.848668
2003-04-09 06:35:32 51°14.366 2°55.02 14.077255 3.7502 29.337875 -0.848668
2003-04-09 06:35:38 51°14.375 2°55.001 14.072183 3.750094 29.33751 -0.848668
2003-04-09 06:35:43 51°14.382 2°54.984 14.068567 3.750094 29.33751 -0.848668
2003-04-09 06:35:48 51°14.391 2°54.968 14.068567 3.750094 29.33751 -0.848668
2003-04-09 06:35:52 51°14.397 2°54.954 14.071213 3.750305 29.339893 -0.848668
2003-04-09 06:35:58 51°14.406 2°54.935 14.069757 3.750094 29.338061 -0.848668
2003-04-09 06:36:03 51°14.413 2°54.918 14.063406 3.749778 29.335312 -0.848668
2003-04-09 06:36:07 51°14.419 2°54.905 14.065082 3.749884 29.336779 -0.882377
2003-04-09 06:36:12 51°14.427 2°54.888 14.060141 3.749778 29.335863 -0.814958
2003-04-09 06:36:18 51°14.438 2°54.87 14.060141 3.749778 29.335863 -0.814958
2003-04-09 06:36:23 51°14.447 2°54.854 14.054406 3.7502 29.340079 -0.814958
2003-04-09 06:36:28 51°14.455 2°54.838 14.047347 3.749673 29.335498 -0.848668
2003-04-09 06:36:33 51°14.464 2°54.823 14.044391 3.749778 29.336414 -0.814958
2003-04-09 06:36:38 51°14.473 2°54.809 14.044567 3.749778 29.335863 -0.848668
2003-04-09 06:36:43 51°14.482 2°54.795 14.046156 3.749778 29.336965 -0.882377
2003-04-09 06:36:47 51°14.491 2°54.786 14.046156 3.749778 29.336965 -0.882377
2003-04-09 06:36:52 51°14.504 2°54.776 14.04492 3.749673 29.335498 -0.882377
2003-04-09 06:36:58 51°14.518 2°54.764 14.039713 3.749884 29.337881 -0.848668
2003-04-09 06:37:03 51°14.529 2°54.755 14.035609 3.749884 29.339534 -0.848668
2003-04-09 06:37:06 51°14.537 2°54.75 14.0274 3.749357 29.335503 -0.848668
2003-04-09 06:37:12 51°14.55 2°54.74 14.024002 3.749673 29.338803 -0.882377
2003-04-09 06:37:18 51°14.564 2°54.731 14.024002 3.749673 29.338803 -0.882377
2003-04-09 06:37:22 51°14.573 2°54.725 14.023605 3.749462 29.337521 -0.848668
2003-04-09 06:37:27 51°14.585 2°54.718 14.020956 3.749462 29.33642 -0.848668
2003-04-09 06:37:32 51°14.597 2°54.712 14.022016 3.749778 29.33972 -0.848668
2003-04-09 06:37:38 51°14.612 2°54.705 14.02281 3.749462 29.337521 -0.848668
2003-04-09 06:37:43 51°14.624 2°54.7 14.020515 3.749462 29.337521 -0.882377
2003-04-09 06:37:47 51°14.634 2°54.696 14.020515 3.749462 29.337521 -0.882377
2003-04-09 06:37:52 51°14.646 2°54.692 14.021133 3.749567 29.338989 -0.882377
2003-04-09 06:37:58 51°14.661 2°54.688 14.018043 3.749462 29.338072 -0.848668
2003-04-09 06:38:03 51°14.673 2°54.685 14.020603 3.749462 29.339175 -0.882377
2003-04-09 06:38:08 51°14.686 2°54.683 14.020603 3.749357 29.338809 -0.848668
2003-04-09 06:38:12 51°14.696 2°54.681 14.019588 3.749251 29.337893 -0.848668
2003-04-09 06:38:18 51°14.712 2°54.677 14.019588 3.749251 29.337893 -0.848668
2003-04-09 06:38:23 51°14.724 2°54.674 14.015041 3.74904 29.336611 -0.848668
2003-04-09 06:38:27 51°14.734 2°54.672 14.010715 3.749146 29.337527 -0.882377
2003-04-09 06:38:32 51°14.747 2°54.669 14.012657 3.749251 29.338444 -0.814958
2003-04-09 06:38:38 51°14.761 2°54.665 14.013938 3.748935 29.336246 -0.882377
2003-04-09 06:38:42 51°14.771 2°54.662 14.01513 3.749041 29.337713 -0.882377
2003-04-09 06:38:48 51°14.786 2°54.658 14.01513 3.749041 29.337713 -0.882377
2003-04-09 06:38:53 51°14.798 2°54.654 14.016057 3.749251 29.339546 -0.848668
2003-04-09 06:38:58 51°14.81 2°54.65 14.014026 3.749146 29.339732 -0.882377
2003-04-09 06:39:03 51°14.822 2°54.647 -999 3.748935 29.337899 -0.848668
2003-04-09 06:39:08 51°14.834 2°54.644 -999 3.749041 29.339366 -0.882377
2003-04-09 06:39:12 51°14.844 2°54.642 -999 3.74883 29.336982 -0.814958
2003-04-09 06:39:18 51°14.857 2°54.64 -999 3.74883 29.336982 -0.814958
2003-04-09 06:39:23 51°14.867 2°54.639 -999 3.74883 29.337533 -0.848668
2003-04-09 06:39:27 51°14.875 2°54.638 -999 3.748724 29.336617 -0.848668
2003-04-09 06:39:32 51°14.884 2°54.637 -999 3.748514 29.335335 -0.882377
2003-04-09 06:39:38 51°14.895 2°54.637 -999 3.748724 29.337719 -0.848668
2003-04-09 06:39:43 51°14.903 2°54.637 -999 3.748619 29.337354 -0.848668
2003-04-09 06:39:48 51°14.911 2°54.638 -999 3.748619 29.337354 -0.848668
2003-04-09 06:39:52 51°14.917 2°54.638 -999 3.748619 29.337905 -0.848668
2003-04-09 06:39:58 51°14.927 2°54.639 -999 3.748619 29.337354 -0.882377
2003-04-09 06:40:02 51°14.933 2°54.641 -999 3.748514 29.337539 -0.882377
2003-04-09 06:40:08 51°14.942 2°54.643 -999 3.748514 29.337539 -0.814958
2003-04-09 06:40:13 51°14.949 2°54.645 -999 3.748408 29.336072 -0.848668
2003-04-09 06:40:18 51°14.956 2°54.646 -999 3.748408 29.336072 -0.848668
2003-04-09 06:40:23 51°14.963 2°54.648 -999 3.748303 29.335706 -0.848668
2003-04-09 06:40:28 51°14.97 2°54.65 -999 3.748303 29.335706 -0.848668
2003-04-09 06:40:32 51°14.975 2°54.651 -999 3.748408 29.337725 -0.848668
2003-04-09 06:40:38 51°14.982 2°54.652 -999 3.748303 29.336809 -0.814958
2003-04-09 06:40:42 51°14.987 2°54.654 -999 3.748303 29.336809 -0.848668
2003-04-09 06:40:48 51°14.993 2°54.656 -999 3.748303 29.336809 -0.848668
2003-04-09 06:40:52 51°14.997 2°54.658 -999 3.748092 29.335526 -0.848668
2003-04-09 06:40:58 51°15.003 2°54.66 -999 3.748197 29.335892 -0.882377
2003-04-09 06:41:03 51°15.007 2°54.662 -999 3.748197 29.336443 -0.848668
2003-04-09 06:41:08 51°15.011 2°54.665 -999 3.747987 29.33461 -0.848668
2003-04-09 06:41:12 51°15.015 2°54.666 -999 3.747987 29.33461 -0.882377
2003-04-09 06:41:18 51°15.02 2°54.669 -999 3.747987 29.33461 -0.882377
2003-04-09 06:41:22 51°15.024 2°54.67 -999 3.747987 29.335161 -0.882377
2003-04-09 06:41:27 51°15.028 2°54.672 -999 3.747987 29.335712 -0.848668
2003-04-09 06:41:32 51°15.033 2°54.674 -999 3.747881 29.334244 -0.814958
2003-04-09 06:41:38 51°15.039 2°54.676 -999 3.747776 29.333879 -0.848668
2003-04-09 06:41:43 51°15.044 2°54.678 -999 3.747776 29.333879 -0.848668
2003-04-09 06:41:47 51°15.047 2°54.679 -999 3.747776 29.333879 -0.848668
2003-04-09 06:41:52 51°15.052 2°54.68 -999 3.747776 29.333879 -0.848668
2003-04-09 06:41:58 51°15.057 2°54.682 -999 3.747776 29.333879 -0.848668
2003-04-09 06:42:03 51°15.061 2°54.683 -999 3.747671 29.333513 -0.848668
2003-04-09 06:42:08 51°15.066 2°54.684 -999 3.74746 29.33168 -0.882377
2003-04-09 06:42:12 51°15.069 2°54.685 -999 3.747565 29.333148 -0.848668
2003-04-09 06:42:18 51°15.073 2°54.687 -999 3.747565 29.333148 -0.848668
2003-04-09 06:42:22 51°15.076 2°54.688 -999 3.747776 29.333879 -0.848668
2003-04-09 06:42:27 51°15.08 2°54.69 -999 3.747354 29.331866 -0.882377
2003-04-09 06:42:32 51°15.084 2°54.692 -999 3.74746 29.332231 -0.882377
2003-04-09 06:42:38 51°15.089 2°54.693 -999 3.747354 29.331315 -0.848668
2003-04-09 06:42:42 51°15.093 2°54.694 -999 3.747354 29.331315 -0.848668
2003-04-09 06:42:48 51°15.099 2°54.696 -999 3.747354 29.331315 -0.848668
2003-04-09 06:42:53 51°15.104 2°54.698 -999 3.747249 29.330398 -0.848668
2003-04-09 06:42:58 51°15.11 2°54.701 -999 3.747354 29.331866 -0.882377
2003-04-09 06:43:03 51°15.116 2°54.704 -999 3.747249 29.330949 -0.848668
2003-04-09 06:43:08 51°15.123 2°54.708 -999 3.747144 29.330032 -0.882377
2003-04-09 06:43:12 51°15.13 2°54.712 -999 3.747354 29.331315 -0.848668
2003-04-09 06:43:18 51°15.141 2°54.719 -999 3.747354 29.331315 -0.848668
2003-04-09 06:43:23 51°15.151 2°54.726 -999 3.747354 29.331315 -0.848668
2003-04-09 06:43:28 51°15.161 2°54.736 -999 3.747144 29.329481 -0.814958
2003-04-09 06:43:32 51°15.17 2°54.744 -999 3.747038 29.329116 -0.848668
2003-04-09 06:43:38 51°15.183 2°54.758 -999 3.747249 29.330949 -0.848668
2003-04-09 06:43:42 51°15.192 2°54.768 -999 3.747038 29.329667 -0.848668
2003-04-09 06:43:48 51°15.206 2°54.785 -999 3.747038 29.329667 -0.848668
2003-04-09 06:43:52 51°15.217 2°54.796 -999 3.747144 29.331135 -0.848668
2003-04-09 06:43:58 51°15.233 2°54.816 -999 3.747038 29.329667 -0.848668
2003-04-09 06:44:03 51°15.246 2°54.835 -999 3.747038 29.329667 -0.848668
2003-04-09 06:44:08 51°15.259 2°54.855 -999 3.746933 29.32875 -0.848668
2003-04-09 06:44:12 51°15.268 2°54.872 -999 3.747038 29.329667 -0.848668
2003-04-09 06:44:18 51°15.282 2°54.898 -999 3.747038 29.329667 -0.848668
2003-04-09 06:44:22 51°15.292 2°54.916 -999 3.746933 29.330404 -0.848668
2003-04-09 06:44:27 51°15.304 2°54.939 -999 3.747038 29.330769 -0.848668
2003-04-09 06:44:33 51°15.318 2°54.965 -999 3.746827 29.328936 -0.848668
2003-04-09 06:44:38 51°15.33 2°54.988 -999 3.747144 29.332237 -0.848668
2003-04-09 06:44:43 51°15.342 2°55.01 -999 3.747038 29.330769 -0.882377
2003-04-09 06:44:48 51°15.355 2°55.032 -999 3.747038 29.330769 -0.882377
2003-04-09 06:44:52 51°15.365 2°55.05 -999 3.746722 29.32857 -0.882377
2003-04-09 06:44:58 51°15.38 2°55.078 -999 3.746722 29.328019 -0.848668
2003-04-09 06:45:03 51°15.392 2°55.102 -999 3.746933 29.329852 -0.848668
2003-04-09 06:45:08 51°15.405 2°55.126 -999 3.746722 29.32857 -0.882377
2003-04-09 06:45:12 51°15.415 2°55.146 -999 3.746827 29.328936 -0.882377
2003-04-09 06:45:18 51°15.429 2°55.174 -999 3.746827 29.328936 -0.882377
2003-04-09 06:45:23 51°15.442 2°55.197 -999 3.746933 29.330955 -0.848668
2003-04-09 06:45:28 51°15.455 2°55.221 -999 3.746722 29.32857 -0.848668
2003-04-09 06:45:32 51°15.465 2°55.239 -999 3.746722 29.32857 -0.882377
2003-04-09 06:45:38 51°15.48 2°55.268 -999 3.746722 29.328019 -0.848668
2003-04-09 06:45:42 51°15.491 2°55.287 -999 3.746617 29.327653 -0.882377
2003-04-09 06:45:48 51°15.506 2°55.317 -999 3.746617 29.327653 -0.882377
2003-04-09 06:45:53 51°15.518 2°55.341 -999 3.746722 29.328019 -0.882377
2003-04-09 06:45:58 51°15.531 2°55.365 -999 3.746722 29.32857 -0.848668
2003-04-09 06:46:03 51°15.543 2°55.39 -999 3.746722 29.32857 -0.882377
2003-04-09 06:46:07 51°15.553 2°55.409 -999 3.746827 29.330038 -0.882377
2003-04-09 06:46:12 51°15.566 2°55.432 -999 3.746617 29.327653 -0.882377
2003-04-09 06:46:18 51°15.582 2°55.459 -999 3.746617 29.327653 -0.882377
2003-04-09 06:46:23 51°15.595 2°55.484 -999 3.746827 29.329487 -0.848668
2003-04-09 06:46:28 51°15.608 2°55.508 -999 3.746617 29.328205 -0.848668
2003-04-09 06:46:32 51°15.618 2°55.527 -999 3.746617 29.327653 -0.882377
2003-04-09 06:46:38 51°15.634 2°55.556 -999 3.746617 29.327653 -0.882377
2003-04-09 06:46:43 51°15.646 2°55.58 -999 3.746722 29.32857 -0.848668
2003-04-09 06:46:48 51°15.659 2°55.604 -999 3.746722 29.32857 -0.848668
2003-04-09 06:46:52 51°15.669 2°55.624 -999 3.746617 29.327653 -0.848668
2003-04-09 06:46:58 51°15.683 2°55.653 -999 3.746722 29.329121 -0.848668
2003-04-09 06:47:02 51°15.692 2°55.672 -999 3.746617 29.328205 -0.882377
2003-04-09 06:47:07 51°15.705 2°55.697 -999 3.746617 29.328756 -0.848668
2003-04-09 06:47:12 51°15.718 2°55.722 -999 3.746617 29.328756 -0.848668
2003-04-09 06:47:18 51°15.733 2°55.751 -999 3.746617 29.328756 -0.848668
2003-04-09 06:47:23 51°15.746 2°55.775 -999 3.746617 29.328756 -0.848668
2003-04-09 06:47:28 51°15.757 2°55.8 -999 3.746617 29.328756 -0.882377
2003-04-09 06:47:33 51°15.77 2°55.823 -999 3.746406 29.327473 -0.848668
2003-04-09 06:47:38 51°15.783 2°55.846 -999 3.746511 29.327839 -0.848668
2003-04-09 06:47:42 51°15.794 2°55.865 -999 3.746511 29.32839 -0.848668
2003-04-09 06:47:48 51°15.81 2°55.894 -999 3.746511 29.32839 -0.848668
2003-04-09 06:47:52 51°15.82 2°55.914 -999 3.746511 29.327839 -0.848668
2003-04-09 06:47:58 51°15.837 2°55.944 -999 3.746406 29.326922 -0.882377
2003-04-09 06:48:03 51°15.85 2°55.969 -999 3.746406 29.328025 -0.848668
2003-04-09 06:48:08 51°15.864 2°55.992 -999 3.746511 29.328941 -0.882377
2003-04-09 06:48:12 51°15.874 2°56.012 -999 3.746511 29.328941 -0.848668
2003-04-09 06:48:18 51°15.888 2°56.042 -999 3.746511 29.328941 -0.848668
2003-04-09 06:48:23 51°15.902 2°56.065 -999 3.746406 29.328025 -0.882377
2003-04-09 06:48:28 51°15.915 2°56.089 -999 3.746406 29.328576 -0.882377
2003-04-09 06:48:33 51°15.927 2°56.113 -999 3.746406 29.329127 -0.882377
2003-04-09 06:48:38 51°15.94 2°56.138 -999 3.746301 29.32821 -0.848668
2003-04-09 06:48:43 51°15.952 2°56.163 -999 3.746301 29.327659 -0.848668
2003-04-09 06:48:47 51°15.963 2°56.183 -999 3.746301 29.327659 -0.848668
2003-04-09 06:48:52 51°15.976 2°56.207 -999 3.746301 29.328761 -0.848668
2003-04-09 06:48:58 51°15.991 2°56.237 -999 3.746301 29.32821 -0.848668
2003-04-09 06:49:03 51°16.003 2°56.262 -999 3.74609 29.326377 -0.848668
2003-04-09 06:49:08 51°16.016 2°56.288 -999 3.746195 29.328396 -0.848668
2003-04-09 06:49:13 51°16.028 2°56.313 -999 3.746301 29.329313 -0.848668
2003-04-09 06:49:18 51°16.04 2°56.339 -999 3.746301 29.329313 -0.848668
2003-04-09 06:49:23 51°16.053 2°56.364 -999 3.746301 29.329864 -0.848668
2003-04-09 06:49:28 51°16.066 2°56.389 -999 3.746195 29.328396 -0.848668
2003-04-09 06:49:32 51°16.076 2°56.409 -999 3.746301 29.329313 -0.848668
2003-04-09 06:49:38 51°16.091 2°56.44 -999 3.746195 29.328947 -0.848668
2003-04-09 06:49:43 51°16.103 2°56.465 -999 3.745984 29.327113 -0.848668
2003-04-09 06:49:48 51°16.116 2°56.49 -999 3.745984 29.327113 -0.848668
2003-04-09 06:49:52 51°16.126 2°56.509 -999 3.745984 29.327113 -0.882377
2003-04-09 06:49:56 51°16.135 2°56.529 -999 3.74609 29.329133 -0.848668
2003-04-09 06:50:03 51°16.152 2°56.565 -999 3.745879 29.327299 -0.814958
2003-04-09 06:50:08 51°16.165 2°56.589 -999 3.745879 29.327299 -0.814958
2003-04-09 06:50:12 51°16.175 2°56.61 -999 3.745984 29.328767 -0.882377
2003-04-09 06:50:18 51°16.19 2°56.639 -999 3.745984 29.328767 -0.882377
2003-04-09 06:50:22 51°16.2 2°56.659 -999 3.745879 29.32785 -0.848668
2003-04-09 06:50:28 51°16.215 2°56.689 -999 3.745984 29.329318 -0.848668
2003-04-09 06:50:32 51°16.224 2°56.709 -999 3.745774 29.326933 -0.848668
2003-04-09 06:50:38 51°16.239 2°56.739 -999 3.745774 29.328036 -0.848668
2003-04-09 06:50:43 51°16.25 2°56.763 -999 3.745879 29.328953 -0.882377
2003-04-09 06:50:48 51°16.262 2°56.788 -999 3.745879 29.328953 -0.882377
2003-04-09 06:50:52 51°16.272 2°56.808 -999 3.745668 29.327119 -0.848668
2003-04-09 06:50:58 51°16.287 2°56.838 -999 3.745774 29.329138 -0.882377
2003-04-09 06:51:03 51°16.299 2°56.863 -999 3.745668 29.328221 -0.848668
2003-04-09 06:51:07 51°16.309 2°56.883 -999 3.745563 29.327856 -0.848668
2003-04-09 06:51:12 51°16.321 2°56.907 -999 3.745563 29.328407 -0.848668
2003-04-09 06:51:18 51°16.335 2°56.937 -999 3.745563 29.328407 -0.848668
2003-04-09 06:51:22 51°16.345 2°56.957 -999 3.745458 29.32749 -0.848668
2003-04-09 06:51:28 51°16.359 2°56.986 -999 3.745774 29.330793 -0.882377
2003-04-09 06:51:32 51°16.369 2°57.005 -999 3.745352 29.327125 -0.848668
2003-04-09 06:51:38 51°16.382 2°57.035 -999 3.745563 29.330061 -0.882377
2003-04-09 06:51:43 51°16.394 2°57.059 -999 3.745458 29.329144 -0.848668
2003-04-09 06:51:47 51°16.403 2°57.078 -999 3.745458 29.329144 -0.848668
2003-04-09 06:51:52 51°16.416 2°57.102 -999 3.745563 29.330613 -0.848668
2003-04-09 06:51:58 51°16.43 2°57.132 -999 3.745141 29.328047 -0.882377
2003-04-09 06:52:03 51°16.443 2°57.157 -999 3.745458 29.33135 -0.882377
2003-04-09 06:52:08 51°16.455 2°57.181 -999 3.745352 29.330984 -0.882377
2003-04-09 06:52:12 51°16.465 2°57.201 -999 3.745352 29.331536 -0.848668
2003-04-09 06:52:18 51°16.479 2°57.23 -999 3.745352 29.331536 -0.848668
2003-04-09 06:52:22 51°16.489 2°57.249 -999 3.745247 29.33117 -0.848668
2003-04-09 06:52:28 51°16.504 2°57.279 -999 3.745247 29.33117 -0.848668
2003-04-09 06:52:32 51°16.514 2°57.299 -999 3.745247 29.331722 -0.882377
2003-04-09 06:52:38 51°16.528 2°57.328 -999 3.745141 29.331356 -0.848668
2003-04-09 06:52:43 51°16.539 2°57.352 -999 3.744931 29.330073 -0.882377
2003-04-09 06:52:48 51°16.551 2°57.377 -999 3.744931 29.330073 -0.882377
2003-04-09 06:52:52 51°16.561 2°57.396 -999 3.745036 29.331542 -0.848668
2003-04-09 06:52:58 51°16.575 2°57.425 -999 3.744825 29.330259 -0.848668
2003-04-09 06:53:03 51°16.587 2°57.449 -999 3.744825 29.330811 -0.848668
2003-04-09 06:53:08 51°16.598 2°57.473 -999 3.744825 29.330811 -0.848668
2003-04-09 06:53:12 51°16.608 2°57.493 -999 3.74472 29.330997 -0.848668
2003-04-09 06:53:18 51°16.622 2°57.522 -999 3.74472 29.330997 -0.848668
2003-04-09 06:53:23 51°16.632 2°57.545 -999 3.744615 29.33008 -0.882377
2003-04-09 06:53:26 51°16.64 2°57.56 -999 3.74472 29.331549 -0.848668
2003-04-09 06:53:32 51°16.656 2°57.591 -999 3.744509 29.330266 -0.848668
2003-04-09 06:53:38 51°16.67 2°57.619 -999 3.744509 29.331369 -0.882377
2003-04-09 06:53:42 51°16.679 2°57.638 -999 3.744298 29.330086 -0.848668
2003-04-09 06:53:48 51°16.694 2°57.667 -999 3.744298 29.330086 -0.848668
2003-04-09 06:53:53 51°16.705 2°57.691 -999 3.744404 29.331003 -0.882377
2003-04-09 06:53:58 51°16.716 2°57.715 -999 3.744193 29.32972 -0.882377
2003-04-09 06:54:03 51°16.728 2°57.74 -999 3.744298 29.331741 -0.848668
2003-04-09 06:54:08 51°16.74 2°57.765 -999 3.744088 29.329906 -0.882377
2003-04-09 06:54:13 51°16.751 2°57.791 -999 3.744298 29.332293 -0.848668
2003-04-09 06:54:18 51°16.763 2°57.817 -999 3.744298 29.332293 -0.848668
2003-04-09 06:54:23 51°16.775 2°57.843 -999 3.743877 29.329175 -0.848668
2003-04-09 06:54:28 51°16.787 2°57.869 -999 3.743877 29.33083 -0.848668
2003-04-09 06:54:32 51°16.796 2°57.889 -999 3.743772 29.329361 -0.848668
2003-04-09 06:54:38 51°16.81 2°57.92 -999 3.743772 29.330464 -0.848668
2003-04-09 06:54:42 51°16.82 2°57.94 -999 3.743772 29.330464 -0.814958
2003-04-09 06:54:47 51°16.832 2°57.966 -999 3.743772 29.330464 -0.814958
2003-04-09 06:54:52 51°16.843 2°57.992 -999 3.743561 29.329733 -0.848668
2003-04-09 06:54:58 51°16.857 2°58.022 -999 3.743772 29.331568 -0.882377
2003-04-09 06:55:03 51°16.868 2°58.048 -999 3.743666 29.331202 -0.882377
2003-04-09 06:55:08 51°16.88 2°58.073 -999 3.743455 29.329367 -0.848668
2003-04-09 06:55:12 51°16.888 2°58.094 -999 3.74335 29.329001 -0.848668
2003-04-09 06:55:18 51°16.902 2°58.124 -999 3.74335 29.329001 -0.848668
2003-04-09 06:55:23 51°16.914 2°58.149 -999 3.74335 29.329553 -0.814958
2003-04-09 06:55:28 51°16.926 2°58.174 -999 3.74335 29.330105 -0.848668
2003-04-09 06:55:33 51°16.938 2°58.199 -999 3.743139 29.328822 -0.848668
2003-04-09 06:55:38 51°16.949 2°58.225 -999 3.743139 29.329374 -0.848668
2003-04-09 06:55:43 51°16.961 2°58.25 -999 3.743034 29.329008 -0.814958
2003-04-09 06:55:48 51°16.973 2°58.276 -999 3.743034 29.329008 -0.814958
2003-04-09 06:55:52 51°16.982 2°58.296 -999 3.742823 29.327725 -0.848668
2003-04-09 06:55:58 51°16.995 2°58.326 -999 3.742823 29.327725 -0.848668
2003-04-09 06:56:03 51°17.007 2°58.352 -999 3.742823 29.327725 -0.848668
2003-04-09 06:56:08 51°17.017 2°58.378 -999 3.742823 29.328828 -0.848668
2003-04-09 06:56:12 51°17.026 2°58.399 -999 3.742718 29.327911 -0.848668
2003-04-09 06:56:18 51°17.04 2°58.431 -999 3.742718 29.327911 -0.848668
2003-04-09 06:56:22 51°17.049 2°58.451 -999 3.742612 29.327545 -0.848668
2003-04-09 06:56:28 51°17.062 2°58.482 -999 3.742507 29.327731 -0.882377
2003-04-09 06:56:32 51°17.07 2°58.503 -999 3.742612 29.328649 -0.848668
2003-04-09 06:56:38 51°17.083 2°58.534 -999 3.742507 29.328283 -0.882377
2003-04-09 06:56:42 51°17.092 2°58.555 -999 3.742402 29.327365 -0.814958
2003-04-09 06:56:48 51°17.104 2°58.587 -999 3.742402 29.327365 -0.814958
2003-04-09 06:56:52 51°17.113 2°58.607 -999 3.742507 29.328835 -0.848668
2003-04-09 06:56:58 51°17.126 2°58.639 -999 3.742085 29.325716 -0.814958
2003-04-09 06:57:03 51°17.137 2°58.664 -999 3.742191 29.327186 -0.848668
2003-04-09 06:57:08 51°17.147 2°58.69 -999 3.742085 29.326268 -0.848668
2003-04-09 06:57:12 51°17.156 2°58.711 -999 3.742191 29.327186 -0.848668
2003-04-09 06:57:18 51°17.169 2°58.742 -999 3.742191 29.327186 -0.848668
2003-04-09 06:57:23 51°17.18 2°58.768 -999 3.741875 29.325536 -0.848668
2003-04-09 06:57:28 51°17.191 2°58.794 -999 3.741875 29.325536 -0.882377
2003-04-09 06:57:32 51°17.2 2°58.815 -999 3.741769 29.32517 -0.848668
2003-04-09 06:57:38 51°17.213 2°58.846 -999 3.741875 29.32664 -0.848668
2003-04-09 06:57:42 51°17.221 2°58.868 -999 3.741664 29.325908 -0.882377
2003-04-09 06:57:48 51°17.235 2°58.898 -999 3.741664 29.325908 -0.882377
2003-04-09 06:57:53 51°17.246 2°58.924 -999 3.741664 29.325356 -0.848668
2003-04-09 06:57:58 51°17.256 2°58.95 -999 3.741559 29.324991 -0.848668
2003-04-09 06:58:03 51°17.267 2°58.976 -999 3.741453 29.324073 -0.848668
2003-04-09 06:58:08 51°17.278 2°59.002 -999 3.741453 29.324625 -0.882377
2003-04-09 06:58:12 51°17.286 2°59.023 -999 3.741242 29.323341 -0.848668
2003-04-09 06:58:18 51°17.299 2°59.054 -999 3.741242 29.323341 -0.848668
2003-04-09 06:58:23 51°17.31 2°59.08 -999 3.741348 29.324259 -0.882377
2003-04-09 06:58:28 51°17.322 2°59.106 -999 3.741242 29.323893 -0.814958
2003-04-09 06:58:32 51°17.331 2°59.127 -999 3.741348 29.324811 -0.848668
2003-04-09 06:58:38 51°17.344 2°59.159 -999 3.741137 29.323527 -0.848668
2003-04-09 06:58:42 51°17.352 2°59.18 -999 3.741242 29.324997 -0.848668
2003-04-09 06:58:46 51°17.361 2°59.2 -999 3.741242 29.324997 -0.848668
2003-04-09 06:58:52 51°17.374 2°59.231 -999 3.741137 29.324631 -0.848668
2003-04-09 06:58:58 51°17.387 2°59.262 -999 3.741137 29.324631 -0.848668
2003-04-09 06:59:03 51°17.398 2°59.288 -999 3.741032 29.324265 -0.814958
2003-04-09 06:59:08 51°17.41 2°59.314 -999 3.741032 29.324265 -0.848668
2003-04-09 06:59:12 51°17.418 2°59.335 -999 3.740926 29.323347 -0.882377
2003-04-09 06:59:18 51°17.431 2°59.366 -999 3.740926 29.323347 -0.882377
2003-04-09 06:59:22 51°17.44 2°59.387 -999 3.740926 29.324451 -0.848668
2003-04-09 06:59:27 51°17.451 2°59.414 -999 3.740926 29.324451 -0.848668
2003-04-09 06:59:32 51°17.461 2°59.44 -999 3.740821 29.323533 -0.848668
2003-04-09 06:59:38 51°17.475 2°59.471 -999 3.740716 29.32372 -0.848668
2003-04-09 06:59:43 51°17.486 2°59.497 -999 3.740716 29.32372 -0.848668
2003-04-09 06:59:47 51°17.494 2°59.518 -999 3.740716 29.32372 -0.848668
2003-04-09 06:59:52 51°17.504 2°59.545 -999 3.740716 29.323168 -0.848668
2003-04-09 06:59:58 51°17.517 2°59.577 -999 3.740505 29.321884 -0.882377
2003-04-09 07:00:03 51°17.528 2°59.604 -999 3.74061 29.323354 -0.848668
2003-04-09 07:00:08 51°17.539 2°59.631 -999 3.740189 29.319682 -0.848668
2003-04-09 07:00:12 51°17.546 2°59.652 -999 3.740294 29.321704 -0.848668
2003-04-09 07:00:18 51°17.559 2°59.684 -999 3.740294 29.321704 -0.848668
2003-04-09 07:00:22 51°17.567 2°59.706 -999 3.740505 29.32354 -0.882377
2003-04-09 07:00:26 51°17.575 2°59.727 -999 3.740083 29.320972 -0.814958
2003-04-09 07:00:32 51°17.587 2°59.76 -999 3.740294 29.322808 -0.814958
2003-04-09 07:00:38 51°17.599 2°59.792 -999 3.740083 29.320972 -0.848668
2003-04-09 07:00:43 51°17.609 2°59.819 -999 3.740189 29.322442 -0.882377
2003-04-09 07:00:48 51°17.62 2°59.846 -999 3.740189 29.322442 -0.882377
2003-04-09 07:00:52 51°17.628 2°59.867 -999 3.740294 29.32336 -0.848668
2003-04-09 07:00:58 51°17.64 2°59.898 -999 3.740083 29.321524 -0.848668
2003-04-09 07:01:03 51°17.65 2°59.925 -999 3.740083 29.322076 -0.848668
2003-04-09 07:01:08 51°17.661 2°59.952 -999 3.739978 29.32171 -0.848668
2003-04-09 07:01:12 51°17.669 2°59.973 -999 3.739978 29.32171 -0.848668
2003-04-09 07:01:18 51°17.68 3°0.005 -999 3.739978 29.32171 -0.848668
2003-04-09 07:01:23 51°17.69 3°0.033 -999 3.739662 29.319508 -0.848668
2003-04-09 07:01:28 51°17.7 3°0.06 -999 3.739767 29.320978 -0.848668
2003-04-09 07:01:32 51°17.707 3°0.082 -999 3.739872 29.321344 -0.848668
2003-04-09 07:01:38 51°17.717 3°0.116 -999 3.739662 29.32006 -0.848668
2003-04-09 07:01:42 51°17.724 3°0.139 -999 3.739662 29.321165 -0.848668
2003-04-09 07:01:47 51°17.732 3°0.168 -999 3.739662 29.321165 -0.848668
2003-04-09 07:01:53 51°17.742 3°0.202 -999 3.739662 29.321165 -0.848668
2003-04-09 07:01:58 51°17.749 3°0.231 -999 3.739556 29.320246 -0.882377
2003-04-09 07:02:03 51°17.757 3°0.26 -999 3.739556 29.320799 -0.848668
2003-04-09 07:02:08 51°17.765 3°0.289 -999 3.739556 29.320799 -0.848668
2003-04-09 07:02:12 51°17.771 3°0.312 -999 3.739135 29.31823 -0.848668
2003-04-09 07:02:18 51°17.78 3°0.347 -999 3.739135 29.31823 -0.848668
2003-04-09 07:02:23 51°17.787 3°0.375 -999 3.739451 29.320433 -0.848668
2003-04-09 07:02:28 51°17.795 3°0.404 -999 3.739346 29.319514 -0.814958
2003-04-09 07:02:32 51°17.801 3°0.427 -999 3.739346 29.320619 -0.848668
2003-04-09 07:02:38 51°17.81 3°0.462 -999 3.739346 29.320619 -0.848668
2003-04-09 07:02:43 51°17.818 3°0.491 -999 3.739135 29.318782 -0.848668
2003-04-09 07:02:48 51°17.826 3°0.52 -999 3.739135 29.318782 -0.848668
2003-04-09 07:02:52 51°17.832 3°0.543 -999 3.739135 29.319335 -0.814958
2003-04-09 07:02:58 51°17.842 3°0.578 -999 3.73924 29.320253 -0.848668
2003-04-09 07:03:03 51°17.85 3°0.606 -999 3.739029 29.319521 -0.848668
2003-04-09 07:03:08 51°17.859 3°0.635 -999 3.739029 29.319521 -0.848668
2003-04-09 07:03:12 51°17.866 3°0.657 -999 3.739029 29.320073 -0.848668
2003-04-09 07:03:18 51°17.877 3°0.692 -999 3.739029 29.320073 -0.848668
2003-04-09 07:03:22 51°17.884 3°0.715 -999 3.738924 29.318603 -0.814958
2003-04-09 07:03:27 51°17.893 3°0.743 -999 3.738819 29.318789 -0.848668
2003-04-09 07:03:32 51°17.902 3°0.772 -999 3.738713 29.31787 -0.848668
2003-04-09 07:03:36 51°17.909 3°0.795 -999 3.738819 29.319341 -0.848668
2003-04-09 07:03:43 51°17.922 3°0.834 -999 3.738713 29.318423 -0.848668
2003-04-09 07:03:48 51°17.931 3°0.862 -999 3.738713 29.318423 -0.848668
2003-04-09 07:03:52 51°17.938 3°0.885 -999 3.738819 29.319341 -0.882377
2003-04-09 07:03:58 51°17.949 3°0.919 -999 3.738608 29.318057 -0.848668
2003-04-09 07:04:03 51°17.957 3°0.947 -999 3.738713 29.319527 -0.882377
2003-04-09 07:04:08 51°17.966 3°0.975 -999 3.738397 29.316772 -0.814958
2003-04-09 07:04:12 51°17.972 3°0.998 -999 3.738608 29.319161 -0.882377
2003-04-09 07:04:18 51°17.982 3°1.032 -999 3.738608 29.319161 -0.882377
2003-04-09 07:04:23 51°17.991 3°1.06 -999 3.738503 29.318243 -0.848668
2003-04-09 07:04:28 51°17.999 3°1.088 -999 3.738503 29.318243 -0.848668
2003-04-09 07:04:33 51°18.008 3°1.116 -999 3.738503 29.319348 -0.848668
2003-04-09 07:04:38 51°18.016 3°1.145 -999 3.738292 29.316958 -0.848668
2003-04-09 07:04:43 51°18.024 3°1.173 -999 3.738292 29.317511 -0.848668
2003-04-09 07:04:48 51°18.033 3°1.201 -999 3.738292 29.317511 -0.848668
2003-04-09 07:04:52 51°18.04 3°1.224 -999 3.738292 29.318063 -0.848668
2003-04-09 07:04:58 51°18.051 3°1.258 -999 3.738503 29.321005 -0.848668
2003-04-09 07:05:02 51°18.058 3°1.28 -999 3.738397 29.319534 -0.848668
2003-04-09 07:05:07 51°18.067 3°1.308 -999 3.738081 29.317883 -0.848668
2003-04-09 07:05:13 51°18.078 3°1.342 -999 3.738186 29.318802 -0.848668
2003-04-09 07:05:18 51°18.088 3°1.369 -999 3.738186 29.318802 -0.848668
2003-04-09 07:05:22 51°18.095 3°1.392 -999 3.737976 29.316965 -0.882377
2003-04-09 07:05:28 51°18.106 3°1.425 -999 3.73787 29.316599 -0.882377
2003-04-09 07:05:32 51°18.114 3°1.447 -999 3.738081 29.318436 -0.814958
2003-04-09 07:05:36 51°18.121 3°1.469 -999 3.737976 29.317517 -0.848668
2003-04-09 07:05:43 51°18.134 3°1.508 -999 3.737976 29.317517 -0.848668
2003-04-09 07:05:48 51°18.144 3°1.536 -999 3.737976 29.317517 -0.848668
2003-04-09 07:05:53 51°18.153 3°1.563 -999 3.73787 29.317151 -0.848668
2003-04-09 07:05:58 51°18.163 3°1.59 -999 3.737765 29.316785 -0.848668
2003-04-09 07:06:03 51°18.173 3°1.618 -999 3.737765 29.317337 -0.848668
2003-04-09 07:06:08 51°18.182 3°1.645 -999 3.73766 29.316419 -0.848668
2003-04-09 07:06:12 51°18.19 3°1.667 -999 3.737765 29.31789 -0.848668
2003-04-09 07:06:18 51°18.201 3°1.7 -999 3.737765 29.31789 -0.848668
2003-04-09 07:06:23 51°18.211 3°1.728 -999 3.73766 29.316971 -0.848668
2003-04-09 07:06:28 51°18.22 3°1.755 -999 3.737554 29.316605 -0.848668
2003-04-09 07:06:32 51°18.228 3°1.777 -999 3.737554 29.316605 -0.882377
2003-04-09 07:06:38 51°18.24 3°1.811 -999 3.737554 29.317158 -0.882377
2003-04-09 07:06:43 51°18.249 3°1.838 -999 3.737554 29.31771 -0.882377
2003-04-09 07:06:48 51°18.259 3°1.866 -999 3.737554 29.31771 -0.882377
2003-04-09 07:06:52 51°18.266 3°1.887 -999 3.737554 29.31771 -0.882377
2003-04-09 07:06:58 51°18.278 3°1.92 -999 3.737449 29.317344 -0.882377
2003-04-09 07:07:03 51°18.287 3°1.947 -999 3.737449 29.317344 -0.848668
2003-04-09 07:07:08 51°18.297 3°1.974 -999 3.737449 29.317896 -0.882377
2003-04-09 07:07:13 51°18.306 3°2.002 -999 3.737238 29.316059 -0.848668
2003-04-09 07:07:18 51°18.316 3°2.029 -999 3.737238 29.316059 -0.848668
2003-04-09 07:07:22 51°18.323 3°2.05 -999 3.737343 29.31753 -0.882377
2003-04-09 07:07:28 51°18.334 3°2.084 -999 3.737133 29.315693 -0.814958
2003-04-09 07:07:32 51°18.342 3°2.106 -999 3.737133 29.316798 -0.814958
2003-04-09 07:07:38 51°18.354 3°2.139 -999 3.737343 29.318083 -0.848668
2003-04-09 07:07:42 51°18.361 3°2.161 -999 3.737027 29.315879 -0.848668
2003-04-09 07:07:48 51°18.372 3°2.194 -999 3.737027 29.315879 -0.848668
2003-04-09 07:07:52 51°18.38 3°2.215 -999 3.737133 29.316798 -0.848668
2003-04-09 07:07:58 51°18.391 3°2.249 -999 3.736922 29.315513 -0.848668
2003-04-09 07:08:03 51°18.401 3°2.277 -999 3.737027 29.316984 -0.848668
2003-04-09 07:08:08 51°18.41 3°2.305 -999 3.736922 29.316066 -0.882377
2003-04-09 07:08:13 51°18.419 3°2.332 -999 3.736922 29.316618 -0.848668
2003-04-09 07:08:18 51°18.429 3°2.359 -999 3.736922 29.316618 -0.848668
2003-04-09 07:08:23 51°18.438 3°2.387 -999 3.736817 29.316252 -0.848668
2003-04-09 07:08:28 51°18.447 3°2.414 -999 3.736817 29.316252 -0.848668
2003-04-09 07:08:32 51°18.455 3°2.436 -999 3.736606 29.314967 -0.814958
2003-04-09 07:08:38 51°18.466 3°2.469 -999 3.736711 29.316439 -0.848668
2003-04-09 07:08:43 51°18.475 3°2.496 -999 3.736606 29.316072 -0.848668
2003-04-09 07:08:48 51°18.484 3°2.523 -999 3.736606 29.316072 -0.848668
2003-04-09 07:08:52 51°18.492 3°2.546 -999 3.736711 29.317544 -0.882377
2003-04-09 07:08:58 51°18.503 3°2.579 -999 3.736711 29.316991 -0.848668
2003-04-09 07:09:03 51°18.512 3°2.606 -999 3.7365 29.315706 -0.848668
2003-04-09 07:09:08 51°18.521 3°2.634 -999 3.7365 29.316811 -0.848668
2003-04-09 07:09:12 51°18.528 3°2.656 -999 3.736395 29.315893 -0.848668
2003-04-09 07:09:18 51°18.54 3°2.689 -999 3.736395 29.315893 -0.848668
2003-04-09 07:09:22 51°18.547 3°2.711 -999 3.7365 29.317364 -0.848668
2003-04-09 07:09:28 51°18.558 3°2.745 -999 3.736395 29.316445 -0.848668
2003-04-09 07:09:32 51°18.564 3°2.767 -999 3.736395 29.316998 -0.848668
2003-04-09 07:09:38 51°18.575 3°2.801 -999 3.73629 29.315526 -0.848668
2003-04-09 07:09:42 51°18.581 3°2.823 -999 3.736184 29.315713 -0.882377
2003-04-09 07:09:48 51°18.591 3°2.857 -999 3.736184 29.315713 -0.882377
2003-04-09 07:09:52 51°18.597 3°2.879 -999 3.736184 29.316265 -0.848668
2003-04-09 07:09:58 51°18.607 3°2.913 -999 3.73629 29.317737 -0.882377
2003-04-09 07:10:03 51°18.615 3°2.94 -999 3.736184 29.317371 -0.848668
2003-04-09 07:10:08 51°18.623 3°2.969 -999 3.736184 29.317371 -0.848668
2003-04-09 07:10:13 51°18.631 3°2.997 -999 3.736184 29.316818 -0.848668
2003-04-09 07:10:18 51°18.638 3°3.025 -999 3.736184 29.316818 -0.848668
2003-04-09 07:10:22 51°18.645 3°3.048 -999 3.735974 29.316086 -0.848668
2003-04-09 07:10:28 51°18.654 3°3.082 -999 3.736184 29.317924 -0.848668
2003-04-09 07:10:32 51°18.66 3°3.104 -999 3.735763 29.314801 -0.848668
2003-04-09 07:10:38 51°18.669 3°3.138 -999 3.735868 29.316272 -0.848668
2003-04-09 07:10:43 51°18.677 3°3.167 -999 3.735763 29.315906 -0.848668
2003-04-09 07:10:48 51°18.685 3°3.195 -999 3.735763 29.315906 -0.848668
2003-04-09 07:10:52 51°18.691 3°3.217 -999 3.735657 29.314987 -0.814958
2003-04-09 07:10:58 51°18.701 3°3.251 -999 3.735657 29.31554 -0.882377
2003-04-09 07:11:03 51°18.709 3°3.279 -999 3.735657 29.31554 -0.882377
2003-04-09 07:11:08 51°18.717 3°3.308 -999 3.735657 29.316093 -0.848668
2003-04-09 07:11:13 51°18.725 3°3.336 -999 3.735657 29.316645 -0.848668
2003-04-09 07:11:18 51°18.733 3°3.364 -999 3.735657 29.316645 -0.848668
2003-04-09 07:11:22 51°18.739 3°3.387 -999 3.735447 29.314807 -0.848668
2003-04-09 07:11:28 51°18.749 3°3.419 -999 3.735341 29.314994 -0.848668
2003-04-09 07:11:32 51°18.754 3°3.439 -999 3.735447 29.315913 -0.882377
2003-04-09 07:11:38 51°18.762 3°3.469 -999 3.735236 29.315181 -0.848668
2003-04-09 07:11:42 51°18.767 3°3.488 -999 3.735236 29.315181 -0.882377
2003-04-09 07:11:48 51°18.774 3°3.515 -999 3.735236 29.315181 -0.882377
2003-04-09 07:11:52 51°18.778 3°3.532 -999 3.735236 29.314628 -0.848668
2003-04-09 07:11:58 51°18.782 3°3.556 -999 3.735131 29.314262 -0.848668
2003-04-09 07:12:03 51°18.785 3°3.575 -999 3.73492 29.312976 -0.848668
2003-04-09 07:12:08 51°18.788 3°3.592 -999 3.735025 29.314448 -0.848668
2003-04-09 07:12:13 51°18.789 3°3.609 -999 3.73492 29.313529 -0.848668
2003-04-09 07:12:18 51°18.79 3°3.624 -999 3.73492 29.313529 -0.848668
2003-04-09 07:12:23 51°18.79 3°3.639 -999 3.735131 29.315367 -0.848668
2003-04-09 07:12:28 51°18.789 3°3.653 -999 3.734814 29.314268 -0.848668
2003-04-09 07:12:32 51°18.789 3°3.664 -999 3.735025 29.315554 -0.848668
2003-04-09 07:12:38 51°18.787 3°3.679 -999 3.734709 29.313349 -0.848668
2003-04-09 07:12:43 51°18.785 3°3.691 -999 3.734814 29.313716 -0.814958
2003-04-09 07:12:48 51°18.784 3°3.701 -999 3.734814 29.313716 -0.814958
2003-04-09 07:12:52 51°18.783 3°3.71 -999 3.734709 29.313902 -0.882377
2003-04-09 07:12:58 51°18.781 3°3.722 -999 3.734604 29.313536 -0.848668
2003-04-09 07:13:03 51°18.779 3°3.731 -999 3.734709 29.315008 -0.882377
2003-04-09 07:13:08 51°18.777 3°3.74 -999 3.734709 29.316114 -0.882377
2003-04-09 07:13:12 51°18.774 3°3.746 -999 3.734498 29.314275 -0.882377
2003-04-09 07:13:18 51°18.771 3°3.754 -999 3.734498 29.314275 -0.882377
2003-04-09 07:13:22 51°18.769 3°3.76 -999 3.733971 29.310232 -0.814958
2003-04-09 07:13:28 51°18.766 3°3.767 -999 3.734393 29.313356 -0.814958
2003-04-09 07:13:32 51°18.764 3°3.771 -999 3.734287 29.31299 -0.814958
2003-04-09 07:13:38 51°18.761 3°3.778 -999 3.733971 29.310785 -0.848668
2003-04-09 07:13:42 51°18.759 3°3.782 -999 3.734604 29.315747 -0.882377
2003-04-09 07:13:48 51°18.756 3°3.788 -999 3.734604 29.315747 -0.882377
2003-04-09 07:13:52 51°18.754 3°3.791 -999 3.734393 29.314462 -0.882377
2003-04-09 07:13:58 51°18.751 3°3.796 -999 3.734393 29.313909 -0.882377
2003-04-09 07:14:03 51°18.749 3°3.8 -999 3.734077 29.312257 -0.814958
2003-04-09 07:14:08 51°18.747 3°3.803 -999 3.734182 29.313176 -0.882377
2003-04-09 07:14:12 51°18.745 3°3.805 -999 3.733971 29.312997 -0.848668
2003-04-09 07:14:18 51°18.743 3°3.807 -999 3.733971 29.312997 -0.848668
2003-04-09 07:14:23 51°18.741 3°3.809 -999 3.734077 29.313363 -0.882377
2003-04-09 07:14:28 51°18.739 3°3.811 -999 3.734077 29.313916 -0.848668
2003-04-09 07:14:32 51°18.738 3°3.812 -999 3.733971 29.312997 -0.848668
2003-04-09 07:14:38 51°18.736 3°3.813 -999 3.733971 29.312997 -0.848668
2003-04-09 07:14:43 51°18.735 3°3.814 -999 3.733971 29.31355 -0.848668
2003-04-09 07:14:48 51°18.735 3°3.814 -999 3.733971 29.31355 -0.848668
2003-04-09 07:14:52 51°18.735 3°3.814 -999 3.733761 29.311711 -0.848668
2003-04-09 07:14:58 51°18.735 3°3.814 -999 3.733866 29.313183 -0.882377
2003-04-09 07:15:02 51°18.735 3°3.813 -999 3.733866 29.313736 -0.848668
2003-04-09 07:15:08 51°18.735 3°3.812 -999 3.733655 29.311898 -0.882377
2003-04-09 07:15:12 51°18.736 3°3.811 -999 3.733761 29.313923 -0.882377
2003-04-09 07:15:18 51°18.738 3°3.81 -999 3.733761 29.313923 -0.882377
2003-04-09 07:15:23 51°18.739 3°3.809 -999 3.733971 29.315762 -0.848668
2003-04-09 07:15:28 51°18.74 3°3.808 -999 3.733761 29.313923 -0.882377
2003-04-09 07:15:32 51°18.741 3°3.807 -999 3.73355 29.312637 -0.882377
2003-04-09 07:15:38 51°18.743 3°3.806 -999 3.733655 29.313004 -0.882377
2003-04-09 07:15:43 51°18.744 3°3.804 -999 3.733655 29.313557 -0.848668
2003-04-09 07:15:48 51°18.745 3°3.804 -999 3.733655 29.313557 -0.848668
2003-04-09 07:15:53 51°18.745 3°3.803 -999 3.73355 29.313743 -0.882377
2003-04-09 07:15:58 51°18.746 3°3.802 -999 3.733339 29.311352 -0.848668
2003-04-09 07:16:02 51°18.747 3°3.802 -999 3.73355 29.31485 -0.882377
2003-04-09 07:16:08 51°18.748 3°3.801 -999 3.733445 29.31393 -0.848668
2003-04-09 07:16:12 51°18.749 3°3.801 -999 3.733444 29.313377 -0.848668
2003-04-09 07:16:18 51°18.749 3°3.8 -999 3.733444 29.313377 -0.848668
2003-04-09 07:16:23 51°18.75 3°3.799 -999 3.733339 29.313564 -0.848668
2003-04-09 07:16:28 51°18.75 3°3.798 -999 3.733445 29.314483 -0.848668
2003-04-09 07:16:33 51°18.75 3°3.797 -999 3.733339 29.313564 -0.882377
2003-04-09 07:16:36 51°18.751 3°3.796 -999 3.733234 29.313198 -0.848668
2003-04-09 07:16:43 51°18.751 3°3.795 -999 3.733234 29.313751 -0.848668
2003-04-09 07:16:48 51°18.751 3°3.794 -999 3.733234 29.313751 -0.848668
2003-04-09 07:16:53 51°18.752 3°3.793 -999 3.733234 29.313751 -0.882377
2003-04-09 07:16:58 51°18.752 3°3.792 -999 3.733023 29.312465 -0.848668
2003-04-09 07:17:03 51°18.752 3°3.792 -999 3.732707 29.31026 -0.848668
2003-04-09 07:17:08 51°18.752 3°3.791 -999 3.733023 29.313018 -0.848668
2003-04-09 07:17:12 51°18.753 3°3.79 -999 3.733023 29.312465 -0.882377
2003-04-09 07:17:18 51°18.753 3°3.789 -999 3.733023 29.312465 -0.882377
2003-04-09 07:17:23 51°18.753 3°3.788 -999 3.732812 29.311732 -0.814958
2003-04-09 07:17:28 51°18.754 3°3.787 -999 3.732918 29.313758 -0.848668
2003-04-09 07:17:32 51°18.754 3°3.787 -999 3.732707 29.311919 -0.848668
2003-04-09 07:17:38 51°18.754 3°3.786 -999 3.732707 29.311919 -0.882377
2003-04-09 07:17:43 51°18.754 3°3.785 -999 3.732601 29.312106 -0.848668
2003-04-09 07:17:48 51°18.754 3°3.784 -999 3.732601 29.312106 -0.848668
2003-04-09 07:17:53 51°18.754 3°3.784 -999 3.732707 29.313578 -0.882377
2003-04-09 07:17:58 51°18.754 3°3.783 -999 3.732707 29.314132 -0.882377
2003-04-09 07:18:02 51°18.755 3°3.782 -999 3.732602 29.313765 -0.848668
2003-04-09 07:18:07 51°18.755 3°3.781 -999 3.732496 29.312846 -0.882377
2003-04-09 07:18:13 51°18.755 3°3.78 -999 3.732496 29.313399 -0.882377
2003-04-09 07:18:18 51°18.755 3°3.779 -999 3.732496 29.313399 -0.882377
2003-04-09 07:18:23 51°18.755 3°3.778 -999 3.732391 29.313032 -0.882377
2003-04-09 07:18:28 51°18.755 3°3.777 -999 3.732285 29.312666 -0.848668
2003-04-09 07:18:33 51°18.755 3°3.776 -999 3.732391 29.314139 -0.882377
2003-04-09 07:18:38 51°18.756 3°3.775 -999 3.732496 29.316165 -0.848668
2003-04-09 07:18:43 51°18.756 3°3.774 -999 3.73218 29.31396 -0.848668
2003-04-09 07:18:48 51°18.756 3°3.773 -999 3.73218 29.31396 -0.848668
2003-04-09 07:18:52 51°18.756 3°3.772 -999 3.732285 29.315433 -0.882377
2003-04-09 07:18:58 51°18.756 3°3.771 -999 3.732285 29.315433 -0.882377
2003-04-09 07:19:03 51°18.756 3°3.771 -999 3.732075 29.314147 -0.848668
2003-04-09 07:19:08 51°18.756 3°3.77 -999 3.732075 29.314147 -0.848668
2003-04-09 07:19:13 51°18.756 3°3.769 -999 3.731864 29.313414 -0.848668
2003-04-09 07:19:18 51°18.756 3°3.768 -999 3.731864 29.313414 -0.848668
2003-04-09 07:19:23 51°18.756 3°3.767 -999 3.731864 29.313967 -0.882377
2003-04-09 07:19:28 51°18.756 3°3.766 -999 3.731864 29.31452 -0.848668
2003-04-09 07:19:32 51°18.755 3°3.765 -999 3.731653 29.313234 -0.882377
2003-04-09 07:19:38 51°18.755 3°3.764 -999 3.731864 29.315627 -0.848668
2003-04-09 07:19:43 51°18.755 3°3.763 -999 3.731548 29.313421 -0.848668
2003-04-09 07:19:48 51°18.755 3°3.762 -999 3.731548 29.313421 -0.848668
2003-04-09 07:19:52 51°18.755 3°3.762 -999 3.731442 29.312501 -0.882377
2003-04-09 07:19:58 51°18.755 3°3.761 -999 3.731442 29.313055 -0.882377
2003-04-09 07:20:03 51°18.754 3°3.76 -999 3.731337 29.313242 -0.848668
2003-04-09 07:20:08 51°18.754 3°3.759 -999 3.731337 29.313795 -0.814958
2003-04-09 07:20:12 51°18.754 3°3.759 -999 3.731337 29.314902 -0.848668
2003-04-09 07:20:18 51°18.754 3°3.758 -999 3.731337 29.314902 -0.848668
2003-04-09 07:20:22 51°18.753 3°3.757 -999 3.731126 29.31417 -0.882377
2003-04-09 07:20:28 51°18.753 3°3.757 -999 3.731126 29.31417 -0.848668
2003-04-09 07:20:32 51°18.753 3°3.756 -999 3.73081 29.312517 -0.814958
2003-04-09 07:20:38 51°18.753 3°3.755 -999 3.730916 29.313437 -0.882377
2003-04-09 07:20:43 51°18.753 3°3.754 -999 3.73081 29.313624 -0.848668
2003-04-09 07:20:48 51°18.753 3°3.754 -999 3.73081 29.313624 -0.848668
2003-04-09 07:20:52 51°18.753 3°3.753 -999 3.730599 29.312891 -0.882377
2003-04-09 07:20:58 51°18.753 3°3.752 -999 3.730705 29.314918 -0.848668
2003-04-09 07:21:03 51°18.753 3°3.752 -999 3.730494 29.313632 -0.848668
2003-04-09 07:21:08 51°18.753 3°3.751 -999 3.730178 29.311979 -0.848668
2003-04-09 07:21:12 51°18.753 3°3.751 -999 3.730283 29.313452 -0.848668
2003-04-09 07:21:18 51°18.753 3°3.75 -999 3.730283 29.313452 -0.848668
2003-04-09 07:21:23 51°18.753 3°3.749 -999 3.730389 29.31548 -0.848668
2003-04-09 07:21:28 51°18.752 3°3.749 -999 3.730178 29.314193 -0.882377
2003-04-09 07:21:33 51°18.752 3°3.748 -999 3.730073 29.313827 -0.848668
2003-04-09 07:21:38 51°18.752 3°3.747 -999 3.729967 29.314014 -0.848668
2003-04-09 07:21:43 51°18.752 3°3.747 -999 3.729967 29.314014 -0.882377
2003-04-09 07:21:48 51°18.752 3°3.746 -999 3.729967 29.314014 -0.882377
2003-04-09 07:21:52 51°18.752 3°3.746 -999 3.729862 29.314201 -0.882377
2003-04-09 07:21:58 51°18.751 3°3.745 -999 3.729862 29.315309 -0.882377
2003-04-09 07:22:03 51°18.751 3°3.744 -999 3.729651 29.314022 -0.848668
2003-04-09 07:22:08 51°18.751 3°3.744 -999 3.729546 29.314209 -0.848668
2003-04-09 07:22:12 51°18.75 3°3.743 -999 3.729335 29.313476 -0.882377
2003-04-09 07:22:18 51°18.749 3°3.742 -999 3.729335 29.313476 -0.882377
2003-04-09 07:22:23 51°18.749 3°3.741 -999 3.72944 29.314397 -0.882377
2003-04-09 07:22:28 51°18.749 3°3.741 -999 3.729335 29.315138 -0.882377
2003-04-09 07:22:32 51°18.749 3°3.74 -999 3.729124 29.313851 -0.848668
2003-04-09 07:22:38 51°18.749 3°3.739 -999 3.72923 29.315879 -0.848668
2003-04-09 07:22:43 51°18.748 3°3.739 -999 3.729019 29.315146 -0.882377
2003-04-09 07:22:48 51°18.748 3°3.738 -999 3.729019 29.315146 -0.882377
2003-04-09 07:22:53 51°18.748 3°3.738 -999 3.728808 29.313305 -0.848668
2003-04-09 07:22:58 51°18.747 3°3.737 -999 3.728703 29.314047 -0.882377
2003-04-09 07:23:02 51°18.747 3°3.736 -999 3.728808 29.315521 -0.848668
2003-04-09 07:23:08 51°18.747 3°3.735 -999 3.728387 29.312947 -0.848668
2003-04-09 07:23:12 51°18.747 3°3.734 -999 3.728387 29.314055 -0.882377
2003-04-09 07:23:18 51°18.746 3°3.734 -999 3.728387 29.314055 -0.882377
2003-04-09 07:23:22 51°18.745 3°3.734 -999 3.728281 29.313689 -0.848668
2003-04-09 07:23:28 51°18.744 3°3.732 -999 3.728281 29.313689 -0.848668
2003-04-09 07:23:32 51°18.744 3°3.732 -999 3.728176 29.313876 -0.848668
2003-04-09 07:23:38 51°18.744 3°3.731 -999 3.727965 29.312589 -0.848668
2003-04-09 07:23:43 51°18.743 3°3.73 -999 3.72807 29.314618 -0.848668
2003-04-09 07:23:48 51°18.743 3°3.729 -999 3.72807 29.314618 -0.848668
2003-04-09 07:23:53 51°18.743 3°3.728 -999 3.727544 29.311677 -0.848668
2003-04-09 07:23:58 51°18.743 3°3.728 -999 3.727754 29.314072 -0.814958
2003-04-09 07:24:02 51°18.743 3°3.727 -999 3.727649 29.31426 -0.848668
2003-04-09 07:24:08 51°18.744 3°3.726 -999 3.727333 29.312052 -0.882377
2003-04-09 07:24:13 51°18.745 3°3.726 -999 3.727438 29.314081 -0.848668
2003-04-09 07:24:18 51°18.745 3°3.725 -999 3.727438 29.314081 -0.848668
2003-04-09 07:24:23 51°18.745 3°3.725 -999 3.727333 29.313714 -0.882377
2003-04-09 07:24:28 51°18.744 3°3.725 -999 3.727122 29.312981 -0.882377
2003-04-09 07:24:33 51°18.744 3°3.724 -999 3.727017 29.312614 -0.882377
2003-04-09 07:24:38 51°18.741 3°3.722 -999 3.726911 29.312802 -0.848668
2003-04-09 07:24:43 51°18.74 3°3.72 -999 3.726701 29.312069 -0.848668
2003-04-09 07:24:48 51°18.739 3°3.72 -999 3.726701 29.312069 -0.848668
2003-04-09 07:24:52 51°18.738 3°3.72 -999 3.727017 29.31594 -0.814958
2003-04-09 07:24:58 51°18.735 3°3.718 -999 3.72649 29.311335 -0.848668
2003-04-09 07:25:03 51°18.732 3°3.717 -999 3.726384 29.312078 -0.848668
2003-04-09 07:25:08 51°18.73 3°3.716 -999 3.726384 29.312078 -0.848668
2003-04-09 07:25:13 51°18.727 3°3.717 -999 3.726384 29.313186 -0.848668
2003-04-09 07:25:18 51°18.723 3°3.717 -999 3.726384 29.313186 -0.848668
2003-04-09 07:25:23 51°18.719 3°3.717 -999 3.726279 29.31282 -0.848668
2003-04-09 07:25:28 51°18.714 3°3.714 -999 3.726068 29.312086 -0.882377
2003-04-09 07:25:32 51°18.711 3°3.713 -999 3.725963 29.31172 -0.848668
2003-04-09 07:25:38 51°18.705 3°3.708 -999 3.725858 29.310798 -0.882377
2003-04-09 07:25:43 51°18.701 3°3.702 -999 3.725647 29.310619 -0.882377
2003-04-09 07:25:48 51°18.696 3°3.695 -999 3.725647 29.310619 -0.882377
2003-04-09 07:25:52 51°18.693 3°3.688 -999 3.725436 29.31044 -0.848668
2003-04-09 07:25:58 51°18.69 3°3.676 -999 3.725541 29.31358 -0.882377
2003-04-09 07:26:03 51°18.688 3°3.664 -999 3.725436 29.313768 -0.848668
2003-04-09 07:26:08 51°18.687 3°3.653 -999 3.725331 29.315065 -0.882377
2003-04-09 07:26:13 51°18.687 3°3.64 -999 3.724909 29.313598 -0.848668
2003-04-09 07:26:18 51°18.688 3°3.628 -999 3.724909 29.313598 -0.848668
2003-04-09 07:26:22 51°18.69 3°3.618 -999 3.724909 29.315262 -0.848668
2003-04-09 07:26:28 51°18.694 3°3.604 -999 3.724804 29.314896 -0.814958
2003-04-09 07:26:32 51°18.697 3°3.595 -999 3.724698 29.314529 -0.848668
2003-04-09 07:26:38 51°18.704 3°3.584 -999 3.724488 29.313241 -0.848668
2003-04-09 07:26:42 51°18.709 3°3.577 -999 3.724698 29.315084 -0.848668
2003-04-09 07:26:48 51°18.717 3°3.569 -999 3.724698 29.315084 -0.848668
2003-04-09 07:26:52 51°18.723 3°3.564 -999 3.724172 29.311031 -0.848668
2003-04-09 07:26:58 51°18.733 3°3.56 -999 3.724172 29.311031 -0.916087
2003-04-09 07:27:03 51°18.741 3°3.559 -999 3.723961 29.309743 -0.916087
2003-04-09 07:27:08 51°18.749 3°3.559 -999 3.724066 29.310664 -0.848668
2003-04-09 07:27:13 51°18.758 3°3.561 -999 3.72375 29.3079 -0.848668
2003-04-09 07:27:18 51°18.768 3°3.565 -999 3.72375 29.3079 -0.848668
2003-04-09 07:27:23 51°18.778 3°3.57 -999 3.723961 29.310297 -0.848668
2003-04-09 07:27:28 51°18.789 3°3.578 -999 3.723539 29.306611 -0.882377
2003-04-09 07:27:32 51°18.798 3°3.585 -999 3.723434 29.30569 -0.848668
2003-04-09 07:27:38 51°18.813 3°3.598 -999 3.723328 29.304768 -0.848668
2003-04-09 07:27:43 51°18.825 3°3.61 -999 3.723434 29.306799 -0.848668
2003-04-09 07:27:48 51°18.837 3°3.623 -999 3.723434 29.306799 -0.848668
2003-04-09 07:27:52 51°18.847 3°3.634 -999 3.723118 29.304589 -0.882377
2003-04-09 07:27:58 51°18.863 3°3.65 -999 3.723012 29.304222 -0.848668
2003-04-09 07:28:03 51°18.876 3°3.664 -999 3.722802 29.303488 -0.814958
2003-04-09 07:28:08 51°18.889 3°3.68 -999 3.722802 29.305153 -0.882377
2003-04-09 07:28:12 51°18.899 3°3.693 -999 3.722696 29.304231 -0.848668
2003-04-09 07:28:18 51°18.913 3°3.714 -999 3.722696 29.304231 -0.848668
2003-04-09 07:28:23 51°18.926 3°3.732 -999 3.722696 29.305895 -0.848668
2003-04-09 07:28:28 51°18.938 3°3.749 -999 3.722486 29.305161 -0.882377
2003-04-09 07:28:32 51°18.949 3°3.762 -999 3.722486 29.306271 -0.848668
2003-04-09 07:28:38 51°18.965 3°3.781 -999 3.722275 29.305537 -0.814958
2003-04-09 07:28:42 51°18.975 3°3.794 -999 3.722064 29.303694 -0.848668
2003-04-09 07:28:48 51°18.991 3°3.814 -999 3.722064 29.303694 -0.848668
2003-04-09 07:28:52 51°19.002 3°3.827 -999 3.721959 29.304437 -0.848668
2003-04-09 07:28:56 51°19.013 3°3.84 -999 3.721748 29.302593 -0.848668
2003-04-09 07:29:03 51°19.03 3°3.865 -999 3.721642 29.303336 -0.848668
2003-04-09 07:29:08 51°19.042 3°3.885 -999 3.721432 29.302047 -0.848668
2003-04-09 07:29:13 51°19.054 3°3.906 -999 3.721643 29.305001 -0.848668
2003-04-09 07:29:18 51°19.064 3°3.927 -999 3.721643 29.305001 -0.848668
2003-04-09 07:29:23 51°19.075 3°3.948 -999 3.721432 29.304267 -0.882377
2003-04-09 07:29:28 51°19.085 3°3.97 -999 3.721221 29.303533 -0.814958
2003-04-09 07:29:32 51°19.093 3°3.987 -999 3.72101 29.302244 -0.848668
2003-04-09 07:29:38 51°19.106 3°4.012 -999 3.72101 29.303354 -0.814958
2003-04-09 07:29:43 51°19.115 3°4.034 -999 3.720694 29.301143 -0.848668
2003-04-09 07:29:48 51°19.126 3°4.055 -999 3.720694 29.301143 -0.848668
2003-04-09 07:29:52 51°19.134 3°4.071 -999 3.7208 29.30373 -0.848668
2003-04-09 07:29:58 51°19.147 3°4.096 -999 3.720483 29.302074 -0.848668
2003-04-09 07:30:02 51°19.156 3°4.113 -999 3.720378 29.303927 -0.848668
2003-04-09 07:30:08 51°19.168 3°4.138 -999 3.720273 29.303005 -0.814958
2003-04-09 07:30:12 51°19.176 3°4.153 -999 3.720167 29.303193 -0.848668
2003-04-09 07:30:18 51°19.188 3°4.173 -999 3.720167 29.303193 -0.848668
2003-04-09 07:30:23 51°19.199 3°4.186 -999 3.719957 29.30468 -0.848668
2003-04-09 07:30:28 51°19.21 3°4.195 -999 3.719851 29.305424 -0.882377
2003-04-09 07:30:32 51°19.218 3°4.2 -999 3.719746 29.305057 -0.882377
2003-04-09 07:30:38 51°19.23 3°4.206 -999 3.719746 29.306723 -0.848668
2003-04-09 07:30:42 51°19.238 3°4.208 -999 3.71964 29.306911 -0.882377
2003-04-09 07:30:48 51°19.248 3°4.208 -999 3.71964 29.306911 -0.882377
2003-04-09 07:30:52 51°19.255 3°4.206 -999 3.719324 29.305255 -0.848668
2003-04-09 07:30:58 51°19.265 3°4.202 -999 3.719324 29.308032 -0.848668
2003-04-09 07:31:03 51°19.272 3°4.197 -999 3.719324 29.309143 -0.848668
2003-04-09 07:31:08 51°19.278 3°4.192 -999 3.719008 29.307487 -0.848668
2003-04-09 07:31:13 51°19.284 3°4.186 -999 3.718692 29.305274 -0.848668
2003-04-09 07:31:18 51°19.29 3°4.179 -999 3.718692 29.305274 -0.848668
2003-04-09 07:31:22 51°19.294 3°4.173 -999 3.718692 29.30583 -0.882377
2003-04-09 07:31:28 51°19.299 3°4.164 -999 3.718797 29.306753 -0.848668
2003-04-09 07:31:33 51°19.303 3°4.154 -999 3.718271 29.302695 -0.848668
2003-04-09 07:31:38 51°19.306 3°4.144 -999 3.718165 29.302883 -0.848668
2003-04-09 07:31:42 51°19.308 3°4.136 -999 3.718271 29.304917 -0.848668
2003-04-09 07:31:46 51°19.309 3°4.128 -999 3.718271 29.304917 -0.848668
2003-04-09 07:31:52 51°19.309 3°4.115 -999 3.717849 29.303449 -0.882377
2003-04-09 07:31:58 51°19.308 3°4.103 -999 3.717849 29.30456 -0.848668
2003-04-09 07:32:03 51°19.307 3°4.093 -999 3.717638 29.304381 -0.882377
2003-04-09 07:32:08 51°19.305 3°4.083 -999 3.717428 29.304203 -0.882377
2003-04-09 07:32:13 51°19.302 3°4.074 -999 3.717217 29.303468 -0.814958
2003-04-09 07:32:18 51°19.299 3°4.065 -999 3.717217 29.303468 -0.814958
2003-04-09 07:32:22 51°19.297 3°4.059 -999 3.717111 29.303657 -0.848668
2003-04-09 07:32:27 51°19.295 3°4.051 -999 3.717006 29.30329 -0.882377
2003-04-09 07:32:33 51°19.292 3°4.043 -999 3.716795 29.303111 -0.848668
2003-04-09 07:32:38 51°19.29 3°4.036 -999 3.716585 29.302377 -0.848668
2003-04-09 07:32:43 51°19.287 3°4.029 -999 3.716374 29.301087 -0.848668
2003-04-09 07:32:48 51°19.284 3°4.022 -999 3.716374 29.301087 -0.848668
2003-04-09 07:32:52 51°19.282 3°4.017 -999 3.716163 29.300352 -0.882377
2003-04-09 07:32:56 51°19.28 3°4.012 -999 3.716163 29.30202 -0.848668
2003-04-09 07:33:03 51°19.277 3°4.004 -999 3.715952 29.301285 -0.848668
2003-04-09 07:33:08 51°19.274 3°3.999 -999 3.715742 29.301663 -0.848668
2003-04-09 07:33:12 51°19.272 3°3.995 -999 3.715636 29.302408 -0.814958
2003-04-09 07:33:18 51°19.269 3°3.99 -999 3.715636 29.302408 -0.814958
2003-04-09 07:33:23 51°19.266 3°3.985 -999 3.715426 29.301673 -0.882377
2003-04-09 07:33:28 51°19.263 3°3.981 14.011995 3.71532 29.301306 -0.848668
2003-04-09 07:33:32 51°19.26 3°3.978 14.711333 3.715215 29.302051 -0.882377
2003-04-09 07:33:38 51°19.257 3°3.974 14.372276 3.714793 29.299469 -0.882377
2003-04-09 07:33:43 51°19.255 3°3.97 14.568402 3.714688 29.299658 -0.848668
2003-04-09 07:33:48 51°19.252 3°3.967 14.568402 3.714688 29.299658 -0.848668
2003-04-09 07:33:52 51°19.25 3°3.964 14.426044 3.714477 29.298923 -0.848668
2003-04-09 07:33:58 51°19.247 3°3.96 14.434819 3.714372 29.299668 -0.848668
2003-04-09 07:34:03 51°19.245 3°3.957 14.522764 3.714266 29.299857 -0.848668
2003-04-09 07:34:08 51°19.242 3°3.954 14.134609 3.714161 29.300602 -0.848668
2003-04-09 07:34:13 51°19.24 3°3.952 14.142805 3.71395 29.299868 -0.814958
2003-04-09 07:34:18 51°19.238 3°3.95 14.142805 3.71395 29.299868 -0.814958
2003-04-09 07:34:23 51°19.235 3°3.948 14.185133 3.71374 29.298577 -0.848668
2003-04-09 07:34:28 51°19.233 3°3.946 14.729637 3.713529 29.298954 -0.882377
2003-04-09 07:34:32 51°19.231 3°3.945 14.700672 3.713318 29.29822 -0.882377
2003-04-09 07:34:38 51°19.229 3°3.942 14.055686 3.713318 29.299332 -0.814958
2003-04-09 07:34:43 51°19.227 3°3.94 14.597949 3.713107 29.298597 -0.882377
2003-04-09 07:34:48 51°19.224 3°3.937 14.597949 3.713107 29.298597 -0.882377
2003-04-09 07:34:52 51°19.222 3°3.936 14.998164 3.712791 29.295826 -0.848668
2003-04-09 07:34:58 51°19.22 3°3.933 14.281716 3.71258 29.295648 -0.882377
2003-04-09 07:35:03 51°19.218 3°3.931 14.356861 3.71258 29.29676 -0.814958
2003-04-09 07:35:08 51°19.216 3°3.929 14.073639 3.712475 29.297506 -0.882377
2003-04-09 07:35:12 51°19.214 3°3.928 14.867172 3.71237 29.297695 -0.848668
2003-04-09 07:35:18 51°19.212 3°3.925 14.867172 3.71237 29.297695 -0.848668
2003-04-09 07:35:23 51°19.209 3°3.923 14.927996 3.712159 29.296403 -0.848668
2003-04-09 07:35:28 51°19.206 3°3.921 14.336128 3.711843 29.294744 -0.848668
2003-04-09 07:35:32 51°19.204 3°3.919 14.049729 3.711737 29.294377 -0.882377
2003-04-09 07:35:38 51°19.2 3°3.915 14.878243 3.711527 29.293642 -0.848668
2003-04-09 07:35:43 51°19.197 3°3.913 14.915365 3.711527 29.294755 -0.882377
2003-04-09 07:35:48 51°19.194 3°3.911 14.915365 3.711527 29.294755 -0.882377
2003-04-09 07:35:52 51°19.191 3°3.908 15.347267 3.711421 29.2955 -0.848668
2003-04-09 07:35:58 51°19.187 3°3.904 15.315274 3.711316 29.295133 -0.882377
2003-04-09 07:36:03 51°19.183 3°3.901 14.819032 3.711 29.293474 -0.848668
2003-04-09 07:36:08 51°19.179 3°3.897 14.571773 3.710894 29.293663 -0.882377
2003-04-09 07:36:12 51°19.176 3°3.893 14.968574 3.710684 29.292928 -0.848668
2003-04-09 07:36:18 51°19.172 3°3.888 14.968574 3.710684 29.292928 -0.848668
2003-04-09 07:36:22 51°19.168 3°3.884 15.147485 3.710578 29.293117 -0.882377
2003-04-09 07:36:27 51°19.165 3°3.879 15.079992 3.710368 29.292381 -0.848668
2003-04-09 07:36:32 51°19.161 3°3.873 15.047916 3.710368 29.293495 -0.882377
2003-04-09 07:36:38 51°19.156 3°3.866 14.72671 3.710051 29.291835 -0.882377
2003-04-09 07:36:43 51°19.152 3°3.859 14.049332 3.710157 29.293316 -0.848668
2003-04-09 07:36:48 51°19.149 3°3.852 14.049332 3.710157 29.293316 -0.848668
2003-04-09 07:36:53 51°19.146 3°3.844 15.090898 3.709946 29.293138 -0.882377
2003-04-09 07:36:58 51°19.143 3°3.837 15.201899 3.709735 29.291846 -0.848668
2003-04-09 07:37:03 51°19.141 3°3.829 14.346144 3.70963 29.292035 -0.848668
2003-04-09 07:37:08 51°19.139 3°3.821 15.173743 3.709314 29.290375 -0.882377
2003-04-09 07:37:12 51°19.137 3°3.815 14.854137 3.708998 29.289272 -0.848668
2003-04-09 07:37:18 51°19.135 3°3.805 14.854137 3.708998 29.289272 -0.848668
2003-04-09 07:37:23 51°19.134 3°3.797 15.317223 3.709103 29.29131 -0.882377
2003-04-09 07:37:28 51°19.131 3°3.788 15.000078 3.708998 29.2915 -0.848668
2003-04-09 07:37:32 51°19.128 3°3.782 14.964787 3.708682 29.28984 -0.848668
2003-04-09 07:37:37 51°19.125 3°3.774 15.243223 3.708787 29.291321 -0.848668
2003-04-09 07:37:43 51°19.121 3°3.765 15.174047 3.708576 29.290586 -0.882377
2003-04-09 07:37:48 51°19.118 3°3.757 15.174047 3.708576 29.290586 -0.882377
2003-04-09 07:37:52 51°19.115 3°3.751 14.933048 3.708365 29.290407 -0.848668
2003-04-09 07:37:58 51°19.11 3°3.742 15.040047 3.708365 29.290964 -0.882377
2003-04-09 07:38:03 51°19.107 3°3.734 15.224147 3.708155 29.290229 -0.848668
2003-04-09 07:38:07 51°19.104 3°3.728 14.368982 3.708049 29.289861 -0.848668
2003-04-09 07:38:13 51°19.1 3°3.72 14.156506 3.707733 29.287644 -0.848668
2003-04-09 07:38:18 51°19.096 3°3.713 14.156506 3.707733 29.287644 -0.848668
2003-04-09 07:38:23 51°19.093 3°3.706 14.304092 3.707628 29.287833 -0.848668
2003-04-09 07:38:28 51°19.089 3°3.699 14.879986 3.707522 29.288022 -0.848668
2003-04-09 07:38:33 51°19.086 3°3.693 14.989636 3.707312 29.28673 -0.848668
2003-04-09 07:38:38 51°19.083 3°3.687 15.205933 3.707312 29.287844 -0.814958
2003-04-09 07:38:43 51°19.08 3°3.681 14.56665 3.706996 29.285626 -0.848668
2003-04-09 07:38:48 51°19.076 3°3.675 14.56665 3.706996 29.285626 -0.848668
2003-04-09 07:38:52 51°19.074 3°3.67 14.749377 3.706996 29.287855 -0.882377
2003-04-09 07:38:58 51°19.069 3°3.663 15.250375 3.706679 29.285637 -0.848668
2003-04-09 07:39:03 51°19.065 3°3.657 14.324265 3.706574 29.286383 -0.848668
2003-04-09 07:39:08 51°19.061 3°3.65 14.360902 3.706574 29.286941 -0.814958
2003-04-09 07:39:13 51°19.056 3°3.645 14.828889 3.706469 29.287687 -0.848668
2003-04-09 07:39:16 51°19.054 3°3.642 14.828889 3.706469 29.287687 -0.848668
2003-04-09 07:39:23 51°19.049 3°3.634 15.297171 3.706258 29.286394 -0.882377
2003-04-09 07:39:28 51°19.046 3°3.629 14.477622 3.706153 29.286584 -0.848668
2003-04-09 07:39:32 51°19.044 3°3.626 14.410686 3.705942 29.286405 -0.882377
2003-04-09 07:39:38 51°19.041 3°3.621 15.057219 3.705942 29.286962 -0.848668
2003-04-09 07:39:43 51°19.039 3°3.617 14.919068 3.705731 29.285669 -0.848668
2003-04-09 07:39:48 51°19.037 3°3.612 14.919068 3.705731 29.285669 -0.848668
2003-04-09 07:39:52 51°19.035 3°3.609 14.704342 3.70552 29.284376 -0.882377
2003-04-09 07:39:58 51°19.033 3°3.604 14.383823 3.70552 29.285491 -0.882377
2003-04-09 07:40:03 51°19.031 3°3.599 14.960521 3.70531 29.285312 -0.848668
2003-04-09 07:40:08 51°19.029 3°3.594 14.534461 3.705099 29.284577 -0.848668
2003-04-09 07:40:12 51°19.028 3°3.591 15.179254 3.705099 29.285691 -0.848668
2003-04-09 07:40:18 51°19.025 3°3.586 15.179254 3.705099 29.285691 -0.848668
2003-04-09 07:40:23 51°19.024 3°3.581 14.755402 3.704888 29.284398 -0.848668
2003-04-09 07:40:28 51°19.023 3°3.576 14.326681 3.704677 29.283662 -0.848668
2003-04-09 07:40:32 51°19.022 3°3.572 14.833905 3.704467 29.282926 -0.848668
2003-04-09 07:40:38 51°19.02 3°3.566 15.262251 3.704256 29.282748 -0.848668
2003-04-09 07:40:43 51°19.018 3°3.561 14.729506 3.704151 29.283495 -0.848668
2003-04-09 07:40:48 51°19.017 3°3.557 14.729506 3.704151 29.283495 -0.848668
2003-04-09 07:40:53 51°19.016 3°3.553 15.015694 3.704045 29.283684 -0.848668
2003-04-09 07:40:58 51°19.015 3°3.548 15.087813 3.70394 29.283874 -0.882377
2003-04-09 07:41:02 51°19.014 3°3.544 14.914233 3.70394 29.284989 -0.848668
2003-04-09 07:41:08 51°19.012 3°3.538 14.735446 3.70394 29.285547 -0.848668
2003-04-09 07:41:12 51°19.011 3°3.535 14.813448 3.703624 29.283885 -0.882377
2003-04-09 07:41:18 51°19.009 3°3.529 14.813448 3.703624 29.283885 -0.882377
2003-04-09 07:41:23 51°19.007 3°3.524 14.994248 3.703413 29.283707 -0.848668
2003-04-09 07:41:28 51°19.005 3°3.519 14.890532 3.703202 29.282971 -0.848668
2003-04-09 07:41:32 51°19.003 3°3.515 15.001209 3.703097 29.28316 -0.814958
2003-04-09 07:41:38 51°19 3°3.51 14.717406 3.702886 29.282424 -0.848668
2003-04-09 07:41:43 51°18.999 3°3.506 15.538005 3.702886 29.284098 -0.814958
2003-04-09 07:41:48 51°18.997 3°3.501 15.538005 3.702886 29.284098 -0.814958
2003-04-09 07:41:53 51°18.996 3°3.497 14.859979 3.702781 29.28373 -0.814958
2003-04-09 07:41:58 51°18.994 3°3.492 14.652894 3.70257 29.282993 -0.848668
2003-04-09 07:42:03 51°18.992 3°3.488 15.188495 3.70257 29.284109 -0.848668
2003-04-09 07:42:08 51°18.991 3°3.484 14.765182 3.702254 29.282447 -0.848668
2003-04-09 07:42:13 51°18.989 3°3.481 14.662644 3.701938 29.281343 -0.848668
2003-04-09 07:42:18 51°18.987 3°3.477 14.662644 3.701938 29.281343 -0.848668
2003-04-09 07:42:23 51°18.986 3°3.473 15.660731 3.701938 29.282459 -0.882377
2003-04-09 07:42:28 51°18.984 3°3.468 15.275337 3.701727 29.281722 -0.848668
2003-04-09 07:42:33 51°18.983 3°3.464 14.707445 3.701516 29.280986 -0.848668
2003-04-09 07:42:38 51°18.981 3°3.46 15.42284 3.701516 29.28266 -0.848668
2003-04-09 07:42:43 51°18.979 3°3.455 14.891012 3.701306 29.281924 -0.814958
2003-04-09 07:42:48 51°18.978 3°3.452 14.891012 3.701306 29.281924 -0.814958
2003-04-09 07:42:53 51°18.977 3°3.449 14.678776 3.7012 29.281556 -0.882377
2003-04-09 07:42:58 51°18.976 3°3.444 15.003254 3.700989 29.281377 -0.848668
2003-04-09 07:43:03 51°18.975 3°3.44 15.146877 3.700884 29.281567 -0.882377
2003-04-09 07:43:08 51°18.973 3°3.435 14.964874 3.700884 29.282683 -0.882377
2003-04-09 07:43:12 51°18.972 3°3.431 14.793203 3.700779 29.282873 -0.848668
2003-04-09 07:43:18 51°18.97 3°3.426 14.793203 3.700779 29.282873 -0.848668
2003-04-09 07:43:23 51°18.968 3°3.421 14.834559 3.700568 29.281579 -0.882377
2003-04-09 07:43:28 51°18.967 3°3.417 15.37254 3.700357 29.280843 -0.848668
2003-04-09 07:43:32 51°18.966 3°3.414 15.018043 3.700146 29.280664 -0.848668
2003-04-09 07:43:38 51°18.964 3°3.408 15.023132 3.699936 29.279928 -0.848668
2003-04-09 07:43:43 51°18.963 3°3.404 14.66929 3.699725 29.279192 -0.848668
2003-04-09 07:43:48 51°18.96 3°3.399 14.66929 3.699725 29.279192 -0.848668
2003-04-09 07:43:53 51°18.958 3°3.394 15.129163 3.69983 29.281234 -0.848668
2003-04-09 07:43:58 51°18.957 3°3.39 15.130206 3.699725 29.281425 -0.848668
2003-04-09 07:44:02 51°18.955 3°3.386 14.567088 3.69962 29.281056 -0.882377
2003-04-09 07:44:08 51°18.954 3°3.381 14.853789 3.699303 29.279393 -0.848668
2003-04-09 07:44:13 51°18.952 3°3.377 14.642617 3.699198 29.279583 -0.848668
2003-04-09 07:44:18 51°18.952 3°3.373 14.642617 3.699198 29.279583 -0.848668
2003-04-09 07:44:23 51°18.951 3°3.369 15.318825 3.699093 29.279773 -0.814958
2003-04-09 07:44:28 51°18.95 3°3.365 15.610606 3.698882 29.279595 -0.848668
2003-04-09 07:44:32 51°18.948 3°3.362 15.042569 3.698671 29.278859 -0.848668
2003-04-09 07:44:38 51°18.948 3°3.358 14.617114 3.698566 29.279049 -0.848668
2003-04-09 07:44:43 51°18.947 3°3.354 14.978714 3.698566 29.280166 -0.848668
2003-04-09 07:44:48 51°18.947 3°3.349 14.978714 3.698566 29.280166 -0.848668
2003-04-09 07:44:53 51°18.946 3°3.344 15.053089 3.69825 29.277944 -0.848668
2003-04-09 07:44:58 51°18.945 3°3.34 15.267364 3.698144 29.278693 -0.814958
2003-04-09 07:45:03 51°18.944 3°3.336 14.774829 3.698039 29.278324 -0.882377
2003-04-09 07:45:08 51°18.943 3°3.332 14.526707 3.697618 29.276293 -0.882377
2003-04-09 07:45:12 51°18.943 3°3.329 14.673487 3.697618 29.27741 -0.882377
2003-04-09 07:45:18 51°18.941 3°3.323 14.673487 3.697618 29.27741 -0.882377
2003-04-09 07:45:23 51°18.941 3°3.319 14.673399 3.697407 29.277231 -0.848668
2003-04-09 07:45:28 51°18.94 3°3.315 15.531444 3.697512 29.278717 -0.882377
2003-04-09 07:45:32 51°18.94 3°3.312 14.967877 3.697091 29.276126 -0.848668
2003-04-09 07:45:38 51°18.94 3°3.307 15.182595 3.696985 29.276875 -0.882377
2003-04-09 07:45:43 51°18.939 3°3.303 14.972447 3.69688 29.276507 -0.882377
2003-04-09 07:45:48 51°18.939 3°3.299 14.972447 3.69688 29.276507 -0.882377
2003-04-09 07:45:53 51°18.939 3°3.296 15.045873 3.696775 29.277256 -0.848668
2003-04-09 07:45:58 51°18.939 3°3.293 15.417997 3.696564 29.276519 -0.848668
2003-04-09 07:46:03 51°18.938 3°3.289 15.229784 3.696458 29.276709 -0.882377
2003-04-09 07:46:08 51°18.938 3°3.285 14.948288 3.696564 29.278754 -0.882377
2003-04-09 07:46:13 51°18.937 3°3.281 14.880204 3.696353 29.277458 -0.848668
2003-04-09 07:46:18 51°18.937 3°3.277 14.880204 3.696353 29.277458 -0.848668
2003-04-09 07:46:22 51°18.937 3°3.274 15.098197 3.695932 29.274867 -0.848668
2003-04-09 07:46:28 51°18.936 3°3.27 15.170402 3.695932 29.276543 -0.848668
2003-04-09 07:46:32 51°18.936 3°3.267 14.744049 3.695826 29.276175 -0.814958
2003-04-09 07:46:38 51°18.936 3°3.262 15.176824 3.695405 29.274701 -0.848668
2003-04-09 07:46:43 51°18.936 3°3.259 15.17882 3.695405 29.27526 -0.814958